<- Previous Day | Today | Next Day ->

All Data for 01 August 2020

 

Time A - D Temp A - D Dew Point A - D Humidity A - D Pressure A - D Wind A - D Wind Dir Gust A - D Rain Rate A - D Rain Total
00:00 16.4 14.6 89 1014.2 6.0 SW 8.3 0.0 0.0
00:01 16.4 14.6 89 1014.3 5.4 SW 8.3 0.0 0.0
00:02 16.4 14.6 89 1014.2 6.0 SW 8.3 0.0 0.0
00:03 16.4 14.6 89 1014.3 8.3 S 8.3 0.0 0.0
00:04 16.4 14.6 89 1014.3 6.0 SW 8.3 0.0 0.0
00:05 16.4 14.6 89 1014.2 6.9 SW 8.3 0.0 0.0
00:06 16.4 14.6 89 1014.2 5.4 SW 8.3 0.0 0.0
00:07 16.4 14.6 89 1014.3 6.0 SW 8.3 0.0 0.0
00:08 16.4 14.6 89 1014.5 6.9 SW 8.3 0.0 0.0
00:09 16.4 14.6 89 1014.2 5.4 SW 8.3 0.0 0.0
00:10 16.4 14.6 89 1014.3 6.0 WSW 8.3 0.0 0.0
00:11 16.4 14.6 89 1014.4 6.0 SW 8.3 0.0 0.0
00:12 16.4 14.6 89 1014.4 6.0 SW 8.3 0.0 0.0
00:13 16.4 14.6 89 1014.3 5.4 SW 7.6 0.0 0.0
00:14 16.4 14.6 89 1014.3 6.0 W 6.9 0.0 0.0
00:15 16.4 14.6 89 1014.3 5.4 SW 6.9 0.0 0.0
00:16 16.4 14.6 89 1014.2 5.4 W 6.9 0.0 0.0
00:17 16.4 14.6 89 1014.3 6.0 SW 6.9 0.0 0.0
00:18 16.5 14.7 89 1014.3 5.4 W 6.9 0.0 0.0
00:19 16.5 14.7 89 1014.6 3.8 S 6.9 0.0 0.0
00:20 16.5 14.7 89 1014.2 3.8 W 6.9 0.0 0.0
00:21 16.5 14.7 89 1014.2 7.6 SW 7.6 0.0 0.0
00:22 16.5 14.7 89 1014.4 10.7 S 10.7 0.0 0.0
00:23 16.5 14.7 89 1014.4 11.4 SW 11.4 0.0 0.0
00:24 16.5 14.9 90 1014.4 13.0 SW 13.0 0.0 0.0
00:25 16.5 14.9 90 1014.3 9.2 SW 13.0 0.0 0.0
00:26 16.6 15.0 90 1014.4 10.7 SW 13.0 0.0 0.0
00:27 16.6 15.0 90 1014.3 9.2 SW 13.0 0.0 0.0
00:28 16.6 15.0 90 1014.3 9.8 SW 13.0 0.0 0.0
00:29 16.6 15.0 90 1014.5 9.8 SW 13.0 0.0 0.0
00:30 16.6 15.0 90 1014.4 9.8 SW 13.0 0.0 0.0
00:31 16.6 15.0 90 1014.4 9.8 SW 13.0 0.0 0.0
00:32 16.6 15.0 90 1014.4 12.1 WNW 13.0 0.0 0.0
00:33 16.7 15.1 90 1014.6 9.8 SW 13.0 0.0 0.0
00:34 16.7 15.1 90 1014.5 9.8 SW 13.0 0.0 0.0
00:35 16.7 15.1 90 1014.2 12.1 W 12.1 0.0 0.0
00:36 16.7 15.1 90 1014.4 8.3 W 12.1 0.0 0.0
00:37 16.7 15.1 90 1014.4 9.8 SW 12.1 0.0 0.0
00:38 16.7 15.1 90 1014.3 9.8 SW 12.1 0.0 0.0
00:39 16.7 15.1 90 1014.4 12.1 S 12.1 0.0 0.0
00:40 16.7 15.1 90 1014.4 12.1 S 12.1 0.0 0.0
00:41 16.7 15.1 90 1014.5 8.3 SW 12.1 0.0 0.0
00:42 16.7 15.1 90 1014.4 9.8 SW 12.1 0.0 0.0
00:43 16.7 15.1 90 1014.7 9.8 W 12.1 0.8 0.1
00:44 16.7 15.1 90 1014.4 9.8 W 12.1 1.5 0.1
00:45 16.7 15.1 90 1014.5 7.6 W 12.1 5.3 0.4
00:46 16.7 15.1 90 1014.6 9.8 W 12.1 6.8 0.6
00:47 16.7 15.1 90 1014.4 8.3 W 12.1 9.1 0.9
00:48 16.7 15.1 90 1014.6 6.9 W 12.1 9.8 1.0
00:49 16.7 15.1 90 1014.4 6.9 W 12.1 12.1 1.1
00:50 16.7 15.1 90 1014.5 8.3 W 9.8 9.8 1.3
00:51 16.7 15.1 90 1014.3 8.3 N 9.8 9.1 1.3
00:52 16.7 15.1 90 1014.3 8.3 W 9.8 6.8 1.3
00:53 16.7 15.1 90 1014.3 6.0 SW 9.8 6.0 1.4
00:54 16.7 15.1 90 1014.5 6.9 SW 9.8 3.8 1.4
00:55 16.7 15.1 90 1014.5 6.9 SW 9.8 2.3 1.4
00:56 16.7 15.1 90 1014.5 6.0 W 9.8 1.5 1.4
00:57 16.7 15.1 90 1014.4 8.3 SW 9.8 1.5 1.4
00:58 16.7 15.1 90 1014.5 6.0 W 9.8 0.8 1.4
00:59 16.7 15.1 90 1014.6 6.9 SW 9.8 0.0 1.4
01:00 16.7 15.1 90 1014.5 6.9 W 9.8 0.0 1.4
01:01 16.7 15.1 90 1014.4 8.3 W 9.8 0.0 1.4
01:02 16.7 15.1 90 1014.6 8.3 W 9.8 0.0 1.4
01:03 16.7 15.1 90 1014.4 8.3 W 9.8 0.0 1.4
01:04 16.7 15.1 90 1014.5 8.3 W 8.3 0.0 1.4
01:05 16.7 15.1 90 1014.6 8.3 W 8.3 0.0 1.4
01:06 16.6 15.0 90 1014.6 8.3 SW 8.3 0.0 1.4
01:07 16.6 15.0 90 1014.7 8.3 W 8.3 0.0 1.4
01:08 16.6 15.0 90 1014.7 8.3 W 8.3 0.0 1.4
01:09 16.6 15.0 90 1014.6 7.6 SW 8.3 0.0 1.4
01:10 16.5 14.9 90 1014.6 7.6 WNW 8.3 0.0 1.4
01:11 16.5 14.9 90 1014.4 8.3 WSW 8.3 0.0 1.4
01:12 16.5 14.9 90 1014.4 6.0 W 8.3 0.0 1.4
01:13 16.5 14.9 90 1014.4 7.6 SW 8.3 0.0 1.4
01:14 16.5 14.9 90 1014.5 7.6 W 8.3 0.0 1.4
01:15 16.5 14.9 90 1014.6 6.9 W 8.3 0.0 1.4
01:16 16.5 14.9 90 1014.4 6.0 S 8.3 0.0 1.4
01:17 16.5 14.9 90 1014.3 6.0 SW 8.3 0.0 1.4
01:18 16.5 14.9 90 1014.5 6.9 SW 8.3 0.0 1.4
01:19 16.5 14.9 90 1014.6 7.6 SW 8.3 0.0 1.4
01:20 16.4 14.8 90 1014.5 9.2 SW 9.2 0.0 1.4
01:21 16.4 14.8 90 1014.5 9.2 N 9.2 0.0 1.4
01:22 16.4 14.8 90 1014.5 8.3 SW 9.2 0.0 1.4
01:23 16.4 14.8 90 1014.4 7.6 N 9.2 0.0 1.4
01:24 16.4 14.8 90 1014.4 7.6 W 9.2 0.0 1.4
01:25 16.4 14.8 90 1014.5 6.0 SW 9.2 0.0 1.4
01:26 16.4 14.8 90 1014.1 8.3 W 9.2 0.0 1.4
01:27 16.4 14.8 90 1014.4 8.3 W 9.2 0.0 1.4
01:28 16.4 14.8 90 1014.3 4.5 SW 9.2 0.0 1.4
01:29 16.4 14.8 90 1014.4 6.9 W 9.2 0.0 1.4
01:30 16.4 14.8 90 1014.3 6.9 W 9.2 0.0 1.4
01:31 16.4 14.8 90 1014.3 9.8 W 9.8 0.0 1.4
01:32 16.4 14.8 90 1014.5 6.0 SW 9.8 0.0 1.4
01:33 16.4 14.8 90 1014.4 5.4 W 9.8 0.0 1.4
01:34 16.3 14.7 90 1014.4 6.0 W 9.8 0.0 1.4
01:35 16.3 14.7 90 1014.3 6.0 S 9.8 0.0 1.4
01:36 16.3 14.7 90 1014.3 6.0 S 9.8 0.0 1.4
01:37 16.3 14.7 90 1014.3 6.9 SW 9.8 0.0 1.4
01:38 16.3 14.7 90 1014.3 8.3 SW 9.8 0.0 1.4
01:39 16.3 14.7 90 1014.3 6.9 W 9.8 0.0 1.4
01:40 16.3 14.7 90 1014.4 6.9 W 9.8 0.0 1.4
01:41 16.3 14.7 90 1014.4 5.4 W 9.8 0.0 1.4
01:42 16.3 14.7 90 1014.3 6.0 SW 8.3 0.0 1.4
01:43 16.3 14.7 90 1014.4 7.6 S 8.3 0.0 1.4
01:44 16.3 14.7 90 1014.4 6.9 W 8.3 0.0 1.4
01:45 16.3 14.7 90 1014.1 5.4 SW 8.3 0.0 1.4
01:46 16.3 14.7 90 1014.4 5.4 SW 8.3 0.0 1.4
01:47 16.3 14.7 90 1014.4 6.0 W 8.3 0.0 1.4
01:48 16.3 14.7 90 1014.3 6.0 SW 7.6 0.0 1.4
01:49 16.3 14.7 90 1014.3 4.5 S 7.6 0.0 1.4
01:50 16.3 14.7 90 1014.5 9.8 SW 9.8 0.0 1.4
01:51 16.3 14.7 90 1014.5 9.8 SW 9.8 0.0 1.4
01:52 16.3 14.7 90 1014.3 6.9 W 9.8 0.0 1.4
01:53 16.3 14.7 90 1014.5 8.3 W 9.8 0.0 1.4
01:54 16.3 14.7 90 1014.3 8.3 SW 9.8 0.0 1.4
01:55 16.3 14.7 90 1014.4 6.9 SW 9.8 0.0 1.4
01:56 16.3 14.7 90 1014.3 6.9 W 9.8 0.0 1.4
01:57 16.3 14.7 90 1014.4 6.0 SW 9.8 0.0 1.4
01:58 16.3 14.7 90 1014.4 7.6 W 9.8 0.0 1.4
01:59 16.3 14.7 90 1014.4 6.9 W 9.8 0.0 1.4
02:00 16.3 14.7 90 1014.4 8.3 W 9.8 0.0 1.4
02:01 16.3 14.7 90 1014.4 6.9 W 8.3 0.0 1.4
02:02 16.3 14.7 90 1014.2 6.0 SW 8.3 0.0 1.4
02:03 16.3 14.7 90 1014.4 6.0 SW 8.3 0.0 1.4
02:04 16.3 14.7 90 1014.5 6.0 SW 8.3 0.0 1.4
02:05 16.3 14.7 90 1014.4 7.6 W 8.3 0.0 1.4
02:06 16.3 14.7 90 1014.5 6.9 W 8.3 0.0 1.4
02:07 16.3 14.7 90 1014.4 5.4 W 8.3 0.0 1.4
02:08 16.3 14.7 90 1014.4 6.9 W 8.3 0.0 1.4
02:09 16.3 14.7 90 1014.4 7.6 W 8.3 0.0 1.4
02:10 16.3 14.7 90 1014.4 7.6 SW 8.3 0.0 1.4
02:11 16.3 14.7 90 1014.4 6.9 SW 8.3 0.0 1.4
02:12 16.3 14.7 90 1014.4 6.9 SW 7.6 0.0 1.4
02:13 16.3 14.7 90 1014.6 4.5 W 7.6 0.0 1.4
02:14 16.3 14.7 90 1014.4 8.3 WNW 8.3 0.0 1.4
02:15 16.3 14.7 90 1014.3 8.3 SW 8.3 0.0 1.4
02:16 16.3 14.7 90 1014.4 7.6 W 8.3 0.0 1.4
02:17 16.3 14.7 90 1014.5 7.6 W 8.3 0.0 1.4
02:18 16.3 14.7 90 1014.3 6.9 W 8.3 0.0 1.4
02:19 16.3 14.7 90 1014.3 6.9 W 8.3 0.0 1.4
02:20 16.3 14.7 90 1014.5 9.2 SW 9.2 0.0 1.4
02:21 16.3 14.7 90 1014.4 9.2 SW 9.2 0.0 1.4
02:22 16.3 14.7 90 1014.4 7.6 W 9.2 0.0 1.4
02:23 16.2 14.6 90 1014.5 7.6 SW 9.2 0.0 1.4
02:24 16.2 14.6 90 1014.3 6.9 WSW 9.2 0.0 1.4
02:25 16.2 14.6 90 1014.5 8.3 W 9.2 0.0 1.4
02:26 16.2 14.6 90 1014.4 6.9 SW 9.2 0.0 1.4
02:27 16.2 14.6 90 1014.6 5.4 SW 9.2 0.0 1.4
02:28 16.2 14.6 90 1014.4 9.2 N 9.2 0.0 1.4
02:29 16.2 14.6 90 1014.2 8.3 W 9.2 0.0 1.4
02:30 16.2 14.6 90 1014.5 8.3 W 9.2 0.0 1.4
02:31 16.1 14.5 90 1014.5 6.0 SW 9.2 0.0 1.4
02:32 16.1 14.5 90 1014.6 8.3 SW 9.2 0.0 1.4
02:33 16.1 14.5 90 1014.5 8.3 SW 9.2 0.0 1.4
02:34 16.1 14.5 90 1014.4 7.6 W 9.2 0.0 1.4
02:35 16.1 14.5 90 1014.6 7.6 W 9.2 0.0 1.4
02:36 16.1 14.5 90 1014.4 7.6 SW 9.2 0.0 1.4
02:37 16.1 14.5 90 1014.6 7.6 SW 9.2 0.0 1.4
02:38 16.1 14.5 90 1014.4 6.0 SW 9.2 0.0 1.4
02:39 16.0 14.4 90 1014.4 6.0 SW 8.3 0.0 1.4
02:40 16.0 14.4 90 1014.5 7.6 SW 8.3 0.0 1.5
02:41 16.0 14.4 90 1014.7 7.6 SW 8.3 0.8 1.5
02:42 16.0 14.4 90 1014.4 7.6 SW 8.3 0.8 1.5
02:43 16.0 14.4 90 1014.6 7.6 SW 8.3 0.8 1.5
02:44 16.0 14.4 90 1014.6 6.0 W 7.6 0.8 1.5
02:45 16.0 14.4 90 1014.6 7.6 W 7.6 0.8 1.5
02:46 16.0 14.4 90 1014.4 9.2 S 9.2 0.0 1.5
02:47 16.0 14.4 90 1014.5 7.6 SW 9.2 0.0 1.5
02:48 16.0 14.4 90 1014.5 7.6 SW 9.2 0.0 1.5
02:49 16.0 14.4 90 1014.4 8.3 SW 9.2 0.0 1.5
02:50 16.1 14.5 90 1014.6 7.6 W 9.2 0.0 1.5
02:51 16.1 14.5 90 1014.5 7.6 SW 9.2 0.0 1.5
02:52 16.1 14.5 90 1014.5 7.6 SW 9.2 0.0 1.5
02:53 16.1 14.5 90 1014.4 6.9 SW 9.2 0.0 1.5
02:54 16.1 14.5 90 1014.5 9.2 SW 9.2 0.0 1.5
02:55 16.1 14.5 90 1014.4 7.6 SW 9.2 0.0 1.5
02:56 16.1 14.5 90 1014.6 7.6 W 9.2 0.0 1.5
02:57 16.1 14.5 90 1014.4 6.9 SW 9.2 0.0 1.5
02:58 16.1 14.5 90 1014.4 6.0 W 9.2 0.0 1.5
02:59 16.1 14.5 90 1014.7 6.9 W 9.2 0.0 1.5
03:00 16.1 14.5 90 1014.7 8.3 SW 9.2 0.0 1.5
03:01 16.1 14.5 90 1014.6 8.3 SW 9.2 0.0 1.5
03:02 16.1 14.5 90 1014.7 8.3 SW 9.2 0.0 1.5
03:03 16.1 14.5 90 1014.6 8.3 SW 9.2 0.0 1.5
03:04 16.1 14.5 90 1014.6 8.3 SW 9.2 0.0 1.5
03:05 16.1 14.5 90 1014.5 8.3 SW 9.2 0.0 1.5
03:06 16.1 14.5 90 1014.6 8.3 SW 8.3 0.0 1.5
03:07 16.1 14.5 90 1014.5 8.3 SW 8.3 0.0 1.5
03:08 16.2 14.6 90 1014.4 8.3 W 8.3 0.0 1.5
03:09 16.2 14.6 90 1014.6 6.9 W 8.3 0.0 1.5
03:10 16.2 14.6 90 1014.5 5.4 W 8.3 0.0 1.5
03:11 16.2 14.6 90 1014.4 6.0 SW 8.3 0.0 1.5
03:12 16.2 14.6 90 1014.5 7.6 W 8.3 0.0 1.5
03:13 16.2 14.6 90 1014.7 8.3 SW 8.3 0.0 1.5
03:14 16.2 14.6 90 1014.7 7.6 SW 8.3 0.0 1.5
03:15 16.2 14.6 90 1014.6 7.6 SW 8.3 0.0 1.5
03:16 16.2 14.6 90 1014.6 7.6 SW 8.3 0.0 1.5
03:17 16.2 14.6 90 1014.8 6.0 W 8.3 0.0 1.5
03:18 16.2 14.6 90 1014.8 9.2 SW 9.2 0.0 1.5
03:19 16.2 14.6 90 1014.7 9.2 WSW 9.2 0.0 1.5
03:20 16.2 14.6 90 1014.9 9.2 WSW 9.2 0.0 1.5
03:21 16.1 14.5 90 1014.6 7.6 SW 9.2 0.0 1.5
03:22 16.1 14.5 90 1014.7 6.0 SW 9.2 0.0 1.5
03:23 16.1 14.5 90 1014.5 6.9 S 9.2 0.0 1.5
03:24 16.1 14.5 90 1014.6 9.2 SW 9.2 0.0 1.5
03:25 16.1 14.5 90 1014.8 9.2 SW 9.2 0.0 1.5
03:26 16.1 14.5 90 1014.7 7.6 S 9.2 0.0 1.5
03:27 16.1 14.5 90 1014.7 8.3 N 9.2 0.0 1.5
03:28 16.1 14.5 90 1014.6 8.3 W 9.2 0.0 1.5
03:29 16.1 14.5 90 1014.8 6.0 SW 9.2 0.0 1.5
03:30 16.1 14.5 90 1014.6 6.9 WNW 9.2 0.0 1.5
03:31 16.0 14.4 90 1014.7 7.6 W 9.2 0.0 1.5
03:32 16.0 14.4 90 1014.7 7.6 W 9.2 0.0 1.5
03:33 16.0 14.4 90 1014.8 5.4 W 9.2 0.0 1.5
03:34 16.0 14.4 90 1014.7 6.0 W 9.2 0.0 1.5
03:35 16.0 14.4 90 1014.6 6.0 SW 9.2 0.0 1.5
03:36 16.0 14.4 90 1014.6 6.0 W 8.3 0.0 1.5
03:37 16.0 14.4 90 1014.6 5.4 SW 8.3 0.0 1.5
03:38 16.0 14.4 90 1014.7 7.6 W 8.3 0.0 1.5
03:39 16.0 14.4 90 1014.7 7.6 W 7.6 0.0 1.5
03:40 16.0 14.4 90 1014.6 5.4 W 7.6 0.0 1.5
03:41 16.0 14.4 90 1014.6 5.4 W 7.6 0.0 1.5
03:42 16.0 14.4 90 1014.6 5.4 W 7.6 0.0 1.5
03:43 16.0 14.4 90 1014.8 6.0 SW 7.6 0.0 1.5
03:44 16.0 14.4 90 1014.8 4.5 SW 7.6 0.0 1.5
03:45 16.0 14.4 90 1014.6 6.0 SW 7.6 0.0 1.5
03:46 16.1 14.5 90 1014.7 6.0 SW 7.6 0.0 1.5
03:47 16.1 14.5 90 1014.7 6.0 W 7.6 0.0 1.5
03:48 16.1 14.5 90 1014.6 6.0 SW 7.6 0.0 1.5
03:49 16.1 14.5 90 1014.7 6.0 SW 6.9 0.0 1.5
03:50 16.1 14.5 90 1014.6 5.4 SW 6.9 0.0 1.5
03:51 16.1 14.5 90 1014.6 4.5 SW 6.0 0.0 1.5
03:52 16.1 14.5 90 1014.7 6.0 W 6.0 0.0 1.5
03:53 16.1 14.5 90 1014.6 6.0 W 6.0 0.0 1.5
03:54 16.1 14.5 90 1014.7 7.6 SW 7.6 0.0 1.5
03:55 16.1 14.5 90 1014.6 6.0 SW 7.6 0.0 1.5
03:56 16.1 14.5 90 1014.7 6.0 W 7.6 0.0 1.5
03:57 16.1 14.5 90 1014.8 5.4 W 7.6 0.0 1.5
03:58 16.1 14.5 90 1014.8 5.4 S 7.6 0.0 1.5
03:59 16.1 14.5 90 1014.7 7.6 SW 7.6 0.0 1.5
04:00 16.1 14.5 90 1014.7 8.3 W 8.3 0.0 1.5
04:01 16.1 14.5 90 1014.6 8.3 W 8.3 0.0 1.5
04:02 16.0 14.4 90 1014.7 9.8 SW 9.8 0.0 1.5
04:03 16.0 14.4 90 1014.9 8.3 W 9.8 0.0 1.5
04:04 16.0 14.4 90 1014.7 6.9 SW 9.8 0.0 1.5
04:05 16.0 14.4 90 1014.8 6.0 W 9.8 0.0 1.5
04:06 16.0 14.4 90 1014.7 8.3 WNW 9.8 0.0 1.5
04:07 16.0 14.4 90 1014.7 8.3 WNW 9.8 0.0 1.5
04:08 16.0 14.4 90 1014.6 7.6 W 9.8 0.0 1.5
04:09 16.0 14.4 90 1014.7 6.0 W 9.8 0.0 1.5
04:10 16.0 14.4 90 1014.9 6.9 SW 9.8 0.0 1.5
04:11 16.0 14.4 90 1014.7 6.9 W 9.8 0.0 1.5
04:12 16.0 14.4 90 1014.7 6.9 W 9.8 0.0 1.5
04:13 16.0 14.4 90 1014.7 6.9 SW 9.8 0.0 1.5
04:14 16.0 14.4 90 1014.8 5.4 W 8.3 0.0 1.5
04:15 15.9 14.3 90 1014.9 6.0 WSW 8.3 0.0 1.5
04:16 15.9 14.3 90 1014.8 8.3 NE 8.3 0.0 1.5
04:17 15.9 14.3 90 1014.8 8.3 W 8.3 0.0 1.5
04:18 15.9 14.3 90 1014.8 7.6 W 8.3 0.0 1.5
04:19 15.9 14.3 90 1014.7 3.8 WNW 8.3 0.0 1.5
04:20 15.9 14.3 90 1014.8 5.4 S 8.3 0.0 1.5
04:21 15.9 14.3 90 1014.8 5.4 S 8.3 0.0 1.5
04:22 15.9 14.3 90 1014.8 6.0 SW 8.3 0.0 1.5
04:23 15.9 14.3 90 1014.7 8.3 WSW 8.3 0.0 1.5
04:24 15.9 14.3 90 1014.7 6.0 W 8.3 0.0 1.5
04:25 15.8 14.2 90 1014.7 6.0 SW 8.3 0.0 1.5
04:26 15.8 14.2 90 1014.7 5.4 W 8.3 0.0 1.5
04:27 15.8 14.2 90 1014.8 5.4 W 8.3 0.0 1.5
04:28 15.8 14.2 90 1014.8 6.9 WNW 8.3 0.0 1.5
04:29 15.8 14.2 90 1014.7 5.4 W 8.3 0.0 1.5
04:30 15.8 14.2 90 1014.6 6.9 W 8.3 0.0 1.5
04:31 15.8 14.2 90 1014.6 7.6 W 8.3 0.0 1.6
04:32 15.8 14.2 90 1014.8 7.6 W 8.3 0.8 1.6
04:33 15.8 14.2 90 1014.7 7.6 W 7.6 0.8 1.6
04:34 15.8 14.2 90 1014.8 6.0 WNW 7.6 1.5 1.6
04:35 15.8 14.2 90 1014.8 6.0 WNW 7.6 1.5 1.6
04:36 15.8 14.2 90 1014.7 6.0 W 7.6 1.5 1.6
04:37 15.8 14.2 90 1014.5 4.5 NW 7.6 1.5 1.9
04:38 15.8 14.2 90 1014.8 4.5 NW 7.6 3.8 1.9
04:39 15.8 14.2 90 1014.6 5.4 NW 7.6 5.3 2.1
04:40 15.8 14.2 90 1014.5 5.4 NW 7.6 5.3 2.1
04:41 15.8 14.2 90 1014.6 5.4 W 7.6 6.8 2.2
04:42 15.8 14.2 90 1014.9 6.0 NW 7.6 3.8 2.2
04:43 15.8 14.2 90 1014.6 6.0 NW 6.0 3.8 2.2
04:44 15.8 14.2 90 1014.8 6.0 NW 6.0 1.5 2.2
04:45 15.8 14.2 90 1014.8 9.2 W 9.2 1.5 2.2
04:46 15.8 14.2 90 1014.8 6.9 W 9.2 0.0 2.2
04:47 15.8 14.2 90 1014.9 7.6 W 9.2 0.0 2.2
04:48 15.8 14.2 90 1015.0 7.6 W 9.2 0.0 2.2
04:49 15.8 14.2 90 1014.9 9.2 WNW 9.2 0.0 2.2
04:50 15.8 14.2 90 1014.8 9.2 SW 9.2 0.8 2.3
04:51 15.8 14.2 90 1014.8 7.6 N 9.2 0.8 2.3
04:52 15.8 14.2 90 1014.7 7.6 N 9.2 0.8 2.3
04:53 15.8 14.2 90 1014.9 9.2 N 9.2 0.8 2.3
04:54 15.8 14.2 90 1014.9 9.2 N 9.2 0.8 2.3
04:55 15.8 14.2 90 1014.9 8.3 W 9.2 0.8 2.3
04:56 15.7 14.1 90 1014.9 7.6 W 9.2 0.0 2.3
04:57 15.7 14.1 90 1014.8 5.4 W 9.2 0.0 2.3
04:58 15.7 14.1 90 1014.8 6.0 N 9.2 0.0 2.3
04:59 15.7 14.1 90 1014.9 5.4 W 9.2 0.0 2.3
05:00 15.7 14.1 90 1014.9 5.4 W 9.2 0.0 2.3
05:01 15.7 14.1 90 1014.9 5.4 W 9.2 0.0 2.3
05:02 15.7 14.1 90 1014.9 5.4 W 9.2 0.0 2.3
05:03 15.7 14.1 90 1014.9 5.4 W 9.2 0.0 2.3
05:04 15.7 14.1 90 1014.9 5.4 W 9.2 0.0 2.3
05:05 15.7 14.1 90 1014.9 5.4 W 8.3 0.0 2.3
05:06 15.7 14.1 90 1014.8 5.4 W 7.6 0.0 2.3
05:07 15.7 14.1 90 1015.0 6.9 N 6.9 0.0 2.3
05:08 15.6 14.0 90 1014.8 6.9 N 6.9 0.0 2.3
05:09 15.6 14.0 90 1014.9 4.5 N 8.3 0.0 2.3
05:10 15.6 14.0 90 1014.7 5.4 W 8.3 0.0 2.3
05:11 15.6 14.0 90 1014.8 5.4 N 8.3 0.0 2.3
05:12 15.6 14.0 90 1014.9 4.5 W 8.3 0.0 2.3
05:13 15.6 14.0 90 1014.9 4.5 N 8.3 0.0 2.3
05:14 15.6 14.0 90 1015.1 6.0 W 8.3 0.0 2.3
05:15 15.6 14.0 90 1015.0 4.5 N 8.3 0.0 2.3
05:16 15.6 14.0 90 1014.9 7.6 SW 8.3 0.0 2.3
05:17 15.6 14.0 90 1015.1 6.0 SW 8.3 0.0 2.3
05:18 15.6 14.0 90 1014.9 6.0 NW 8.3 0.0 2.3
05:19 15.6 14.0 90 1015.2 4.5 WNW 7.6 0.0 2.3
05:20 15.6 14.0 90 1014.9 6.0 W 7.6 0.0 2.3
05:21 15.6 14.0 90 1014.9 5.4 NNW 7.6 0.0 2.3
05:22 15.6 14.0 90 1014.8 5.4 NNW 7.6 0.0 2.3
05:23 15.5 13.9 90 1015.0 5.4 N 7.6 0.0 2.3
05:24 15.5 13.9 90 1014.9 5.4 N 7.6 0.0 2.3
05:25 15.5 13.9 90 1014.8 5.4 N 7.6 0.0 2.3
05:26 15.5 13.9 90 1014.8 6.0 N 7.6 0.0 2.3
05:27 15.5 13.9 90 1014.7 2.2 W 6.0 0.0 2.3
05:28 15.5 13.9 90 1015.0 5.4 W 6.0 0.0 2.3
05:29 15.5 13.9 90 1014.8 4.5 W 6.0 0.0 2.3
05:30 15.5 13.9 90 1014.8 4.5 N 6.0 0.0 2.3
05:31 15.5 13.9 90 1014.9 3.8 W 6.0 0.0 2.3
05:32 15.5 13.9 90 1014.9 3.8 W 6.0 0.0 2.3
05:33 15.5 13.9 90 1014.9 3.8 W 6.0 0.0 2.3
05:34 15.5 13.9 90 1014.8 3.1 W 6.0 0.0 2.3
05:35 15.5 13.9 90 1014.9 5.4 W 6.0 0.0 2.3
05:36 15.5 13.9 90 1015.1 5.4 W 6.0 0.0 2.3
05:37 15.5 13.9 90 1014.9 4.5 N 6.0 0.0 2.3
05:38 15.5 13.9 90 1014.9 3.8 N 5.4 0.0 2.3
05:39 15.5 13.9 90 1014.9 3.8 N 5.4 0.0 2.3
05:40 15.5 13.9 90 1015.0 3.8 W 5.4 0.0 2.3
05:41 15.5 13.9 90 1015.0 3.8 NNW 5.4 0.0 2.3
05:42 15.5 13.9 90 1014.9 5.4 NNW 5.4 0.0 2.3
05:43 15.4 13.8 90 1014.9 4.5 SW 5.4 0.0 2.3
05:44 15.4 13.8 90 1015.0 4.5 SW 5.4 0.0 2.3
05:45 15.4 13.8 90 1014.9 4.5 SW 5.4 0.0 2.3
05:46 15.4 13.8 90 1015.1 5.4 W 5.4 0.0 2.3
05:47 15.4 13.8 90 1015.0 5.4 W 5.4 0.0 2.3
05:48 15.4 13.8 90 1014.9 6.0 N 6.0 0.0 2.3
05:49 15.4 13.8 90 1015.1 6.9 W 6.9 0.0 2.3
05:50 15.4 13.8 90 1015.1 6.0 W 6.9 0.0 2.3
05:51 15.4 13.8 90 1015.1 5.4 W 6.9 0.0 2.3
05:52 15.4 13.8 90 1015.1 4.5 N 6.9 0.0 2.3
05:53 15.4 13.8 90 1015.1 5.4 SW 6.9 0.0 2.3
05:54 15.4 13.8 90 1015.1 8.3 W 8.3 0.0 2.3
05:55 15.4 13.8 90 1015.0 5.4 W 8.3 0.0 2.3
05:56 15.4 13.8 90 1015.3 6.0 NW 8.3 0.0 2.3
05:57 15.4 13.8 90 1015.2 10.7 W 10.7 0.0 2.3
05:58 15.4 13.8 90 1015.2 5.4 N 10.7 0.0 2.3
05:59 15.4 13.8 90 1015.1 3.8 W 10.7 0.0 2.3
06:00 15.4 13.8 90 1015.1 3.8 W 10.7 0.0 2.3
06:01 15.3 13.7 90 1015.2 8.3 SW 10.7 0.0 2.3
06:02 15.3 13.7 90 1015.3 6.9 W 10.7 0.0 2.3
06:03 15.3 13.7 90 1015.0 6.9 N 10.7 0.0 2.3
06:04 15.3 13.7 90 1015.2 6.9 W 10.7 0.0 2.3
06:05 15.3 13.7 90 1015.0 8.3 NNW 10.7 0.0 2.3
06:06 15.3 13.7 90 1015.1 8.3 NNW 10.7 0.0 2.3
06:07 15.3 13.5 89 1015.2 6.0 W 10.7 0.0 2.3
06:08 15.3 13.5 89 1015.2 5.4 W 8.3 0.0 2.3
06:09 15.3 13.5 89 1015.3 5.4 W 8.3 0.0 2.3
06:10 15.2 13.4 89 1015.2 5.4 W 8.3 0.0 2.3
06:11 15.2 13.4 89 1015.3 7.6 NW 8.3 0.0 2.3
06:12 15.2 13.4 89 1015.2 8.3 WNW 8.3 0.0 2.3
06:13 15.2 13.4 89 1015.2 8.3 N 8.3 0.0 2.3
06:14 15.2 13.4 89 1015.1 6.0 W 8.3 0.0 2.3
06:15 15.2 13.4 89 1015.2 6.9 N 8.3 0.0 2.3
06:16 15.2 13.4 89 1015.4 6.0 N 8.3 0.0 2.3
06:17 15.2 13.4 89 1015.2 3.8 W 8.3 0.0 2.3
06:18 15.2 13.4 89 1015.3 7.6 N 8.3 0.0 2.3
06:19 15.2 13.4 89 1015.2 6.9 W 8.3 0.0 2.3
06:20 15.2 13.4 89 1015.2 6.9 N 8.3 0.0 2.3
06:21 15.2 13.4 89 1015.2 5.4 W 8.3 0.0 2.3
06:22 15.2 13.4 89 1015.3 4.5 W 8.3 0.0 2.3
06:23 15.2 13.4 89 1015.3 4.5 W 8.3 0.0 2.3
06:24 15.1 13.3 89 1015.1 6.0 NW 7.6 0.0 2.3
06:25 15.1 13.3 89 1015.3 6.0 W 7.6 0.0 2.3
06:26 15.1 13.3 89 1015.1 4.5 N 7.6 0.0 2.3
06:27 15.1 13.3 89 1015.3 4.5 N 7.6 0.0 2.3
06:28 15.1 13.3 89 1015.3 4.5 N 7.6 0.0 2.3
06:29 15.1 13.3 89 1015.3 5.4 N 6.9 0.0 2.3
06:30 15.1 13.3 89 1015.3 3.8 W 6.0 0.0 2.3
06:31 15.1 13.3 89 1015.3 4.5 NW 6.0 0.0 2.3
06:32 15.1 13.3 89 1015.2 4.5 NW 6.0 0.0 2.3
06:33 15.1 13.3 89 1015.3 6.0 N 6.0 0.0 2.3
06:34 15.1 13.3 89 1015.5 4.5 W 6.0 0.0 2.3
06:35 15.1 13.3 89 1015.3 5.4 N 6.0 0.0 2.3
06:36 15.1 13.3 89 1015.3 7.6 NNW 7.6 0.0 2.3
06:37 15.1 13.3 89 1015.3 7.6 N 7.6 0.0 2.3
06:38 15.1 13.3 89 1015.2 6.0 N 7.6 0.0 2.3
06:39 15.1 13.3 89 1015.4 6.0 W 7.6 0.0 2.3
06:40 15.1 13.3 89 1015.4 4.5 N 7.6 0.0 2.3
06:41 15.1 13.3 89 1015.4 4.5 N 7.6 0.0 2.3
06:42 15.1 13.1 88 1015.3 3.8 W 7.6 0.0 2.3
06:43 15.1 13.1 88 1015.4 4.5 N 7.6 0.0 2.3
06:44 15.1 13.1 88 1015.4 3.8 W 7.6 0.0 2.3
06:45 15.1 13.1 88 1015.4 5.4 N 7.6 0.0 2.3
06:46 15.1 13.1 88 1015.4 3.1 N 7.6 0.0 2.3
06:47 15.1 13.1 88 1015.5 2.2 NW 7.6 0.0 2.3
06:48 15.1 13.1 88 1015.5 2.2 W 6.0 0.0 2.3
06:49 15.0 13.0 88 1015.3 4.5 W 6.0 0.0 2.3
06:50 15.0 13.0 88 1015.5 3.8 N 5.4 0.0 2.3
06:51 15.0 13.0 88 1015.4 3.8 N 5.4 0.0 2.3
06:52 15.0 13.0 88 1015.5 4.5 W 5.4 0.0 2.3
06:53 15.0 13.0 88 1015.6 3.8 SW 5.4 0.0 2.3
06:54 15.0 13.0 88 1015.7 4.5 W 5.4 0.0 2.3
06:55 15.0 13.0 88 1015.6 3.8 W 5.4 0.0 2.3
06:56 15.0 13.0 88 1015.6 3.8 W 4.5 0.0 2.3
06:57 15.0 13.0 88 1015.4 4.5 W 4.5 0.0 2.3
06:58 15.0 13.0 88 1015.5 4.5 W 4.5 0.0 2.3
06:59 15.0 13.0 88 1015.6 5.4 N 5.4 0.0 2.3
07:00 15.0 13.0 88 1015.6 5.4 N 5.4 0.0 2.3
07:01 15.0 13.0 88 1015.4 6.0 W 6.0 0.0 2.3
07:02 15.0 13.0 88 1015.5 6.0 W 6.0 0.0 2.3
07:03 15.0 13.0 88 1015.6 3.8 NW 8.3 0.0 2.3
07:04 15.0 13.0 88 1015.8 5.4 W 8.3 0.0 2.3
07:05 15.0 13.0 88 1015.7 6.0 W 8.3 0.0 2.3
07:06 15.0 13.0 88 1015.5 4.5 WNW 8.3 0.0 2.3
07:07 15.0 13.0 88 1015.4 5.4 WNW 8.3 0.0 2.3
07:08 15.0 13.0 88 1015.5 5.4 N 8.3 0.0 2.3
07:09 15.0 13.0 88 1015.7 4.5 N 8.3 0.0 2.3
07:10 15.0 13.0 88 1015.8 4.5 W 8.3 0.0 2.3
07:11 15.0 13.0 88 1015.7 6.9 W 8.3 0.0 2.3
07:12 15.0 13.0 88 1015.6 6.9 WNW 8.3 0.0 2.3
07:13 15.0 13.0 88 1015.9 3.8 N 8.3 0.0 2.3
07:14 15.0 13.0 88 1015.7 6.0 W 6.9 0.0 2.3
07:15 15.0 13.0 88 1015.8 5.4 W 6.9 0.0 2.3
07:16 15.0 13.0 88 1015.8 6.0 W 6.9 0.0 2.3
07:17 15.0 13.0 88 1015.8 4.5 W 6.9 0.0 2.3
07:18 15.0 13.0 88 1015.9 6.9 W 6.9 0.0 2.3
07:19 15.0 13.0 88 1015.9 6.9 W 6.9 0.0 2.3
07:20 15.0 13.0 88 1015.9 6.0 N 6.9 0.0 2.3
07:21 15.0 13.0 88 1015.7 5.4 WNW 6.9 0.0 2.3
07:22 15.0 13.0 88 1015.7 6.0 N 6.9 0.0 2.3
07:23 15.0 13.0 88 1015.7 6.0 N 6.9 0.0 2.3
07:24 15.0 13.0 88 1015.7 6.0 N 6.9 0.0 2.3
07:25 15.1 13.0 87 1016.1 5.4 SW 6.9 0.0 2.3
07:26 15.1 13.0 87 1015.9 7.6 SW 7.6 0.0 2.3
07:27 15.1 13.0 87 1016.0 8.3 W 8.3 0.0 2.3
07:28 15.1 13.0 87 1015.8 6.9 W 8.3 0.0 2.3
07:29 15.1 13.0 87 1015.8 6.9 W 8.3 0.0 2.3
07:30 15.1 13.0 87 1015.8 5.4 W 8.3 0.0 2.3
07:31 15.1 13.0 87 1015.9 4.5 W 8.3 0.0 2.3
07:32 15.1 13.0 87 1015.9 6.0 W 8.3 0.0 2.3
07:33 15.2 13.1 87 1015.8 3.8 W 8.3 0.0 2.3
07:34 15.2 13.1 87 1015.7 4.5 W 8.3 0.0 2.3
07:35 15.2 13.1 87 1015.8 5.4 WNW 8.3 0.0 2.3
07:36 15.2 13.1 87 1015.8 6.0 NNW 8.3 0.0 2.3
07:37 15.2 13.1 87 1015.7 6.0 NW 6.9 0.0 2.3
07:38 15.2 13.1 87 1015.7 5.4 W 6.9 0.0 2.3
07:39 15.2 13.1 87 1015.9 6.9 NW 6.9 0.0 2.3
07:40 15.2 13.1 87 1016.1 6.9 WNW 6.9 0.0 2.3
07:41 15.2 13.1 87 1015.8 5.4 W 6.9 0.0 2.3
07:42 15.3 13.2 87 1015.9 8.3 W 8.3 0.0 2.3
07:43 15.3 13.2 87 1015.9 7.6 N 8.3 0.0 2.3
07:44 15.3 13.2 87 1016.0 7.6 N 8.3 0.0 2.3
07:45 15.3 13.2 87 1016.0 5.4 WNW 8.3 0.0 2.3
07:46 15.3 13.2 87 1016.1 7.6 W 8.3 0.0 2.3
07:47 15.3 13.2 87 1016.1 6.9 N 8.3 0.0 2.3
07:48 15.3 13.2 87 1015.9 5.4 W 8.3 0.0 2.3
07:49 15.3 13.2 87 1016.1 3.8 W 8.3 0.0 2.3
07:50 15.4 13.3 87 1016.0 6.0 W 8.3 0.0 2.3
07:51 15.4 13.3 87 1016.0 6.9 W 8.3 0.0 2.3
07:52 15.4 13.3 87 1016.0 6.9 W 8.3 0.0 2.3
07:53 15.4 13.3 87 1016.0 5.4 N 8.3 0.0 2.3
07:54 15.4 13.3 87 1016.0 5.4 W 8.3 0.0 2.3
07:55 15.4 13.3 87 1015.9 5.4 W 7.6 0.0 2.3
07:56 15.4 13.3 87 1016.0 5.4 W 7.6 0.0 2.3
07:57 15.5 13.4 87 1016.0 9.2 NNW 9.2 0.0 2.3
07:58 15.5 13.4 87 1015.9 9.2 N 9.2 0.0 2.3
07:59 15.5 13.4 87 1016.0 6.9 NW 9.2 0.0 2.3
08:00 15.5 13.4 87 1016.1 6.0 N 9.2 0.0 2.3
08:01 15.5 13.4 87 1016.1 6.0 N 9.2 0.0 2.3
08:02 15.5 13.4 87 1016.0 6.0 N 9.2 0.0 2.3
08:03 15.5 13.4 87 1016.1 6.0 N 9.2 0.0 2.3
08:04 15.5 13.4 87 1016.0 6.0 N 9.2 0.0 2.3
08:05 15.5 13.4 87 1016.1 6.0 N 9.2 0.0 2.3
08:06 15.6 13.5 87 1016.0 6.9 W 9.2 0.0 2.3
08:07 15.6 13.5 87 1016.0 6.9 W 9.2 0.0 2.3
08:08 15.6 13.5 87 1016.1 6.0 W 9.2 0.0 2.3
08:09 15.6 13.5 87 1016.0 8.3 W 8.3 0.0 2.3
08:10 15.6 13.3 86 1016.2 6.0 W 8.3 0.0 2.3
08:11 15.6 13.3 86 1016.0 7.6 W 8.3 0.0 2.3
08:12 15.6 13.3 86 1016.0 6.0 NW 8.3 0.0 2.3
08:13 15.6 13.3 86 1016.1 5.4 N 8.3 0.0 2.3
08:14 15.6 13.3 86 1016.1 4.5 W 8.3 0.0 2.3
08:15 15.6 13.3 86 1016.3 4.5 NE 8.3 0.0 2.3
08:16 15.7 13.4 86 1016.0 4.5 N 8.3 0.0 2.3
08:17 15.7 13.4 86 1016.1 4.5 N 8.3 0.0 2.3
08:18 15.7 13.4 86 1016.1 8.3 N 8.3 0.0 2.3
08:19 15.7 13.4 86 1016.3 8.3 W 8.3 0.0 2.3
08:20 15.7 13.4 86 1016.1 6.9 W 8.3 0.0 2.3
08:21 15.8 13.5 86 1016.2 6.9 W 8.3 0.0 2.3
08:22 15.8 13.5 86 1016.1 9.2 W 9.2 0.0 2.3
08:23 15.8 13.5 86 1016.3 8.3 NW 9.2 0.0 2.3
08:24 15.9 13.6 86 1016.1 4.5 N 9.2 0.0 2.3
08:25 15.9 13.6 86 1016.3 4.5 NW 9.2 0.0 2.3
08:26 16.0 13.7 86 1016.1 6.0 N 9.2 0.0 2.3
08:27 16.0 13.7 86 1016.2 6.0 N 9.2 0.0 2.3
08:28 16.1 13.8 86 1016.3 5.4 W 9.2 0.0 2.3
08:29 16.1 13.8 86 1016.4 5.4 W 9.2 0.0 2.3
08:30 16.2 13.9 86 1016.1 4.5 N 9.2 0.0 2.3
08:31 16.2 13.9 86 1016.5 4.5 W 9.2 0.0 2.3
08:32 16.3 14.0 86 1016.1 7.6 N 8.3 0.0 2.3
08:33 16.3 14.0 86 1016.2 7.6 SW 7.6 0.0 2.3
08:34 16.3 14.0 86 1016.1 11.4 SW 11.4 0.0 2.3
08:35 16.3 14.0 86 1016.1 11.4 SW 11.4 0.0 2.3
08:36 16.3 14.0 86 1016.3 9.8 WNW 11.4 0.0 2.3
08:37 16.3 13.8 85 1016.1 6.9 N 11.4 0.0 2.3
08:38 16.3 13.8 85 1016.3 5.4 W 11.4 0.0 2.3
08:39 16.3 13.8 85 1016.3 5.4 W 11.4 0.0 2.3
08:40 16.3 13.8 85 1016.2 6.9 W 11.4 0.0 2.3
08:41 16.3 13.8 85 1016.1 8.3 NW 11.4 0.0 2.3
08:42 16.3 13.8 85 1016.1 6.0 WNW 11.4 0.0 2.3
08:43 16.3 13.6 84 1016.2 6.9 W 11.4 0.0 2.3
08:44 16.3 13.6 84 1016.1 9.8 NW 11.4 0.0 2.3
08:45 16.3 13.6 84 1016.5 9.2 W 9.8 0.0 2.3
08:46 16.3 13.6 84 1016.2 9.2 W 9.8 0.0 2.3
08:47 16.3 13.6 84 1016.4 9.2 N 9.8 0.0 2.3
08:48 16.3 13.6 84 1016.3 8.3 W 9.8 0.0 2.3
08:49 16.3 13.6 84 1016.1 6.9 W 9.8 0.0 2.3
08:50 16.3 13.6 84 1016.2 8.3 W 9.8 0.0 2.3
08:51 16.3 13.6 84 1016.4 8.3 W 9.8 0.0 2.3
08:52 16.3 13.6 84 1016.8 8.3 W 9.8 0.0 2.3
08:53 16.3 13.4 83 1016.7 7.6 NE 9.8 0.0 2.3
08:54 16.3 13.4 83 1016.2 6.9 SW 9.8 0.0 2.3
08:55 16.4 13.5 83 1016.4 6.9 W 9.2 0.0 2.3
08:56 16.4 13.5 83 1016.4 8.3 W 9.2 0.0 2.3
08:57 16.4 13.5 83 1016.3 9.8 W 9.8 0.0 2.3
08:58 16.4 13.5 83 1016.4 5.4 NW 9.8 0.0 2.3
08:59 16.4 13.5 83 1016.4 5.4 NE 9.8 0.0 2.3
09:00 16.4 13.5 83 1016.3 7.6 W 9.8 0.0 2.3
09:01 16.4 13.5 83 1016.6 7.6 W 9.8 0.0 2.3
09:02 16.4 13.5 83 1016.4 7.6 W 9.8 0.0 2.3
09:03 16.4 13.5 83 1016.4 7.6 W 9.8 0.0 2.3
09:04 16.4 13.5 83 1016.3 7.6 W 9.8 0.0 2.3
09:05 16.4 13.5 83 1016.4 7.6 W 9.8 0.0 2.3
09:06 16.5 13.6 83 1016.3 9.2 NW 9.8 0.0 2.3
09:07 16.5 13.4 82 1016.5 6.0 N 9.8 0.0 2.3
09:08 16.5 13.4 82 1016.4 8.3 N 9.8 0.0 2.3
09:09 16.5 13.4 82 1016.5 6.9 NW 9.2 0.0 2.3
09:10 16.6 13.5 82 1016.4 8.3 N 9.2 0.0 2.3
09:11 16.6 13.5 82 1016.5 8.3 W 9.2 0.0 2.3
09:12 16.6 13.5 82 1016.4 8.3 NW 9.2 0.0 2.3
09:13 16.6 13.5 82 1016.4 8.3 NW 9.2 0.0 2.3
09:14 16.6 13.5 82 1016.5 6.9 NW 9.2 0.0 2.3
09:15 16.6 13.5 82 1016.5 6.9 ENE 9.2 0.0 2.3
09:16 16.6 13.5 82 1016.4 9.2 S 9.2 0.0 2.3
09:17 16.7 13.6 82 1016.3 9.2 W 9.2 0.0 2.3
09:18 16.7 13.4 81 1016.3 6.9 W 10.7 0.0 2.3
09:19 16.7 13.4 81 1016.3 6.9 W 10.7 0.0 2.3
09:20 16.7 13.4 81 1016.5 5.4 WNW 10.7 0.0 2.3
09:21 16.7 13.4 81 1016.4 8.3 E 10.7 0.0 2.3
09:22 16.7 13.4 81 1016.5 12.1 W 12.1 0.0 2.3
09:23 16.7 13.4 81 1016.4 12.1 W 12.1 0.0 2.3
09:24 16.7 13.4 81 1016.6 8.3 WNW 12.1 0.0 2.3
09:25 16.7 13.2 80 1016.5 6.0 NW 12.1 0.0 2.3
09:26 16.7 13.2 80 1016.4 12.1 N 12.1 0.0 2.3
09:27 16.7 13.2 80 1016.5 6.9 SW 12.1 0.0 2.3
09:28 16.7 13.2 80 1016.4 9.8 N 12.1 0.0 2.3
09:29 16.7 13.2 80 1016.5 12.1 W 12.1 0.0 2.3
09:30 16.7 13.2 80 1016.7 9.8 N 12.1 0.0 2.3
09:31 16.7 13.2 80 1016.5 11.4 W 12.1 0.0 2.3
09:32 16.7 13.2 80 1016.6 11.4 N 12.1 0.0 2.3
09:33 16.7 13.2 80 1016.4 7.6 NW 12.1 0.0 2.3
09:34 16.7 13.0 79 1016.5 7.6 W 12.1 0.0 2.3
09:35 16.8 13.1 79 1016.4 7.6 NW 12.1 0.0 2.3
09:36 16.8 13.1 79 1016.5 8.3 W 12.1 0.0 2.3
09:37 16.8 13.3 80 1016.7 7.6 N 12.1 0.0 2.3
09:38 16.8 13.3 80 1016.6 7.6 N 12.1 0.0 2.3
09:39 16.8 13.3 80 1016.7 9.8 N 12.1 0.0 2.3
09:40 16.8 13.1 79 1016.6 9.8 N 11.4 0.0 2.3
09:41 16.8 13.1 79 1016.5 7.6 SW 11.4 0.0 2.3
09:42 16.8 13.1 79 1016.7 9.2 W 11.4 0.0 2.3
09:43 16.9 13.2 79 1016.7 6.9 NNW 10.7 0.0 2.3
09:44 16.9 13.2 79 1016.6 5.4 W 10.7 0.0 2.3
09:45 16.9 13.2 79 1016.6 8.3 N 10.7 0.0 2.3
09:46 16.9 13.2 79 1016.6 13.0 N 13.0 0.0 2.3
09:47 16.9 13.2 79 1016.6 13.0 N 13.0 0.0 2.3
09:48 16.9 13.2 79 1016.8 6.9 WNW 13.0 0.0 2.3
09:49 16.9 13.2 79 1016.7 9.2 N 13.0 0.0 2.3
09:50 16.9 13.2 79 1016.8 8.3 NW 13.0 0.0 2.3
09:51 16.9 13.2 79 1016.7 8.3 N 13.0 0.0 2.3
09:52 16.9 13.2 79 1016.6 9.8 N 13.0 0.0 2.3
09:53 16.9 13.2 79 1016.4 7.6 N 13.0 0.0 2.3
09:54 16.9 13.2 79 1016.7 5.4 WSW 13.0 0.0 2.3
09:55 16.9 13.2 79 1016.6 8.3 W 13.0 0.0 2.3
09:56 16.9 13.2 79 1016.7 6.0 W 13.0 0.0 2.3
09:57 16.9 13.2 79 1016.6 7.6 NW 9.8 0.0 2.3
09:58 16.9 13.2 79 1016.8 10.7 NW 11.4 0.0 2.3
09:59 16.9 13.2 79 1016.7 7.6 NNW 11.4 0.0 2.3
10:00 16.9 13.2 79 1016.8 6.0 NW 11.4 0.0 2.3
10:01 16.9 13.2 79 1016.9 6.0 NW 11.4 0.0 2.3
10:02 16.9 13.2 79 1016.9 6.0 NW 11.4 0.0 2.3
10:03 16.9 13.2 79 1016.8 6.0 NW 11.4 0.0 2.3
10:04 16.9 13.2 79 1016.7 6.0 NW 11.4 0.0 2.3
10:05 16.9 13.2 79 1016.9 6.0 NW 11.4 0.0 2.3
10:06 16.8 12.6 76 1016.9 12.1 NW 12.1 0.0 2.3
10:07 16.8 12.4 75 1016.9 6.9 N 12.1 0.0 2.3
10:08 16.8 12.4 75 1016.9 7.6 N 12.1 0.0 2.3
10:09 16.8 12.4 75 1017.0 9.2 N 12.1 0.0 2.3
10:10 16.7 12.1 74 1016.9 10.7 N 12.1 0.0 2.3
10:11 16.8 12.1 74 1017.0 9.2 NW 12.1 0.0 2.3
10:12 16.8 12.1 74 1016.8 9.2 W 12.1 0.0 2.3
10:13 16.8 12.1 74 1016.9 9.2 W 12.1 0.0 2.3
10:14 16.9 12.0 73 1017.2 9.8 N 12.1 0.0 2.3
10:15 16.9 12.0 73 1016.9 11.4 N 12.1 0.0 2.3
10:16 16.9 12.0 73 1016.9 11.4 N 12.1 0.0 2.3
10:17 16.9 11.8 72 1017.0 9.8 SW 11.4 0.0 2.3
10:18 16.9 11.8 72 1016.9 9.8 W 11.4 0.0 2.3
10:19 16.9 11.8 72 1017.0 9.8 N 11.4 0.0 2.3
10:20 16.9 11.8 72 1017.0 5.4 W 11.4 0.0 2.3
10:21 16.9 11.8 72 1017.0 5.4 SW 11.4 0.0 2.3
10:22 16.9 11.8 72 1017.0 5.4 SW 11.4 0.0 2.3
10:23 17.0 12.1 73 1017.0 9.8 N 11.4 0.0 2.3
10:24 17.0 12.1 73 1016.9 6.0 N 11.4 0.0 2.3
10:25 17.0 11.9 72 1017.2 6.9 W 11.4 0.0 2.3
10:26 17.1 12.0 72 1017.2 9.2 W 11.4 0.0 2.3
10:27 17.1 12.0 72 1017.0 7.6 WSW 10.7 0.0 2.3
10:28 17.1 12.0 72 1017.0 6.0 NNW 10.7 0.0 2.3
10:29 17.1 12.2 73 1017.1 7.6 N 10.7 0.0 2.3
10:30 17.1 12.2 73 1017.1 9.8 SW 10.7 0.0 2.3
10:31 17.2 12.3 73 1016.8 8.3 NW 10.7 0.0 2.3
10:32 17.2 12.3 73 1017.1 7.6 W 10.7 0.0 2.3
10:33 17.2 12.3 73 1017.1 8.3 N 13.0 0.0 2.3
10:34 17.2 12.3 73 1017.0 8.3 NW 13.0 0.0 2.3
10:35 17.2 12.3 73 1017.1 13.0 N 13.0 0.0 2.3
10:36 17.2 12.3 73 1017.1 13.0 N 13.0 0.0 2.3
10:37 17.3 12.4 73 1017.0 8.3 WNW 13.0 0.0 2.3
10:38 17.3 12.4 73 1016.9 9.2 W 13.0 0.0 2.3
10:39 17.3 12.4 73 1017.0 10.7 W 13.0 0.0 2.3
10:40 17.3 12.4 73 1016.9 9.2 W 13.0 0.0 2.3
10:41 17.3 12.4 73 1016.9 8.3 W 13.0 0.0 2.3
10:42 17.5 12.2 71 1017.0 13.6 NW 13.6 0.0 2.3
10:43 17.5 12.2 71 1017.0 14.5 NW 14.5 0.0 2.3
10:44 17.5 12.2 71 1017.0 14.5 NW 14.5 0.0 2.3
10:45 17.5 12.2 71 1017.1 11.4 E 14.5 0.0 2.3
10:46 17.4 12.5 73 1017.0 9.2 W 14.5 0.0 2.3
10:47 17.4 12.3 72 1017.0 9.8 W 14.5 0.0 2.3
10:48 17.4 12.3 72 1017.0 13.0 W 14.5 0.0 2.3
10:49 17.5 12.0 70 1017.1 10.7 NW 14.5 0.0 2.3
10:50 17.5 12.0 70 1016.9 10.7 N 14.5 0.0 2.3
10:51 17.5 12.0 70 1017.1 13.0 W 14.5 0.0 2.3
10:52 17.5 12.0 70 1017.2 9.8 W 14.5 0.0 2.3
10:53 17.5 12.0 70 1017.1 7.6 W 14.5 0.0 2.3
10:54 17.5 12.0 70 1016.9 9.8 NW 13.0 0.0 2.3
10:55 17.5 12.0 70 1017.1 9.8 NW 13.0 0.0 2.3
10:56 17.7 12.2 70 1017.0 12.1 S 13.0 0.0 2.3
10:57 17.7 12.2 70 1017.2 12.1 N 13.0 0.0 2.3
10:58 17.6 11.9 69 1017.3 6.0 N 13.0 0.0 2.3
10:59 17.6 11.9 69 1017.3 6.0 N 13.0 0.0 2.3
11:00 17.6 11.9 69 1016.8 6.0 N 13.0 0.0 2.3
11:01 17.6 11.9 69 1017.0 8.3 W 13.0 0.0 2.3
11:02 17.6 11.9 69 1017.1 8.3 W 13.0 0.0 2.3
11:03 17.6 11.9 69 1017.1 8.3 W 12.1 0.0 2.3
11:04 17.6 11.9 69 1017.1 8.3 W 12.1 0.0 2.3
11:05 17.6 11.9 69 1017.2 8.3 W 12.1 0.0 2.3
11:06 17.8 12.3 70 1017.1 9.8 NW 13.0 0.0 2.3
11:07 17.8 12.0 69 1017.1 9.8 NW 13.0 0.0 2.3
11:08 17.9 12.1 69 1017.0 9.2 W 13.0 0.0 2.3
11:09 17.9 12.1 69 1017.3 8.3 W 13.0 0.0 2.3
11:10 18.0 12.2 69 1017.2 9.2 N 13.0 0.0 2.3
11:11 18.1 12.3 69 1017.0 9.2 N 13.0 0.0 2.3
11:12 18.1 12.3 69 1017.4 8.3 SW 13.0 0.0 2.3
11:13 18.1 12.3 69 1017.0 9.2 WSW 13.0 0.0 2.3
11:14 18.1 12.6 70 1017.1 5.4 NW 13.0 0.0 2.3
11:15 18.1 12.6 70 1017.1 7.6 W 13.0 0.0 2.3
11:16 18.1 12.6 70 1017.1 7.6 NW 9.8 0.0 2.3
11:17 18.1 12.6 70 1017.3 4.5 NW 9.8 0.0 2.3
11:18 18.1 12.6 70 1017.2 5.4 NW 9.2 0.0 2.3
11:19 18.1 12.6 70 1017.3 9.8 NW 9.8 0.0 2.3
11:20 18.1 12.6 70 1017.3 8.3 W 9.8 0.0 2.3
11:21 18.0 12.2 69 1017.1 10.7 NW 10.7 0.0 2.3
11:22 18.0 12.0 68 1017.4 8.3 NW 10.7 0.0 2.3
11:23 18.0 12.2 69 1017.3 6.0 W 10.7 0.0 2.3
11:24 18.1 12.6 70 1017.5 9.8 SW 10.7 0.0 2.3
11:25 18.0 12.5 70 1017.5 11.4 NW 11.4 0.0 2.3
11:26 17.9 12.4 70 1017.4 7.6 NW 11.4 0.0 2.3
11:27 17.8 12.3 70 1017.6 6.0 N 11.4 0.0 2.3
11:28 17.8 12.3 70 1017.2 6.0 N 11.4 0.0 2.3
11:29 17.7 12.2 70 1017.5 9.8 W 11.4 0.0 2.3
11:30 17.7 12.2 70 1017.4 8.3 W 11.4 0.0 2.3
11:31 17.7 12.2 70 1017.5 5.4 N 11.4 0.0 2.3
11:32 17.7 12.2 70 1017.5 5.4 N 11.4 0.0 2.3
11:33 17.9 12.6 71 1017.5 10.7 W 11.4 0.0 2.3
11:34 17.9 12.4 70 1017.5 9.2 N 11.4 0.0 2.3
11:35 17.9 12.4 70 1017.5 11.4 NW 11.4 0.0 2.3
11:36 17.9 12.4 70 1017.6 10.7 NW 11.4 0.0 2.3
11:37 18.0 12.5 70 1017.5 5.4 NW 11.4 0.0 2.3
11:38 18.0 12.5 70 1017.4 9.8 NW 11.4 0.0 2.3
11:39 18.1 12.3 69 1017.5 7.6 S 13.0 0.0 2.3
11:40 18.1 12.3 69 1017.6 8.3 N 13.0 0.0 2.3
11:41 18.2 12.6 70 1017.6 12.1 NW 13.0 0.0 2.3
11:42 18.3 12.3 68 1017.6 8.3 E 13.0 0.0 2.3
11:43 18.3 12.3 68 1017.6 6.9 NW 13.0 0.0 2.3
11:44 18.3 12.3 68 1017.6 8.3 NW 13.0 0.0 2.3
11:45 18.3 12.3 68 1017.6 7.6 NE 13.0 0.0 2.3
11:46 18.3 12.3 68 1017.7 6.9 W 13.0 0.0 2.3
11:47 18.3 12.3 68 1017.7 6.9 NW 13.0 0.0 2.3
11:48 18.3 12.3 68 1017.5 6.9 N 13.0 0.0 2.3
11:49 18.3 12.1 67 1017.7 9.8 NW 13.0 0.0 2.3
11:50 18.3 12.1 67 1017.6 7.6 W 12.1 0.0 2.3
11:51 18.3 12.1 67 1017.7 7.6 W 12.1 0.0 2.3
11:52 18.3 12.1 67 1017.7 9.2 W 12.1 0.0 2.3
11:53 18.3 12.3 68 1017.9 9.8 NW 9.8 0.0 2.3
11:54 18.4 12.4 68 1017.8 6.0 W 9.8 0.0 2.3
11:55 18.5 12.5 68 1017.8 9.2 W 9.8 0.0 2.3
11:56 18.5 12.5 68 1017.9 5.4 WNW 9.8 0.0 2.3
11:57 18.6 12.6 68 1018.0 6.0 N 9.8 0.0 2.3
11:58 18.6 12.4 67 1017.6 9.2 W 9.8 0.0 2.3
11:59 18.5 12.0 66 1017.8 9.2 W 9.8 0.0 2.3
12:00 18.5 12.0 66 1017.8 9.2 W 9.8 0.0 2.3
12:01 18.4 11.7 65 1017.9 7.6 W 9.8 0.0 2.3
12:02 18.4 11.7 65 1017.8 7.6 W 9.8 0.0 2.3
12:03 18.3 11.8 66 1017.7 10.7 NW 10.7 0.0 2.3
12:04 18.2 11.5 65 1017.8 13.0 NW 13.0 0.0 2.3
12:05 18.0 11.3 65 1017.8 9.2 N 13.0 0.0 2.3
12:06 18.0 11.6 66 1017.8 8.3 SW 13.0 0.0 2.3
12:07 18.0 11.6 66 1018.0 8.3 SW 13.0 0.0 2.3
12:08 18.0 11.6 66 1017.9 8.3 SW 13.0 0.0 2.3
12:09 18.0 11.8 67 1017.8 10.7 N 13.0 0.0 2.3
12:10 18.2 12.2 68 1018.0 4.5 NW 13.0 0.0 2.3
12:11 18.2 12.4 69 1017.9 11.4 W 13.0 0.0 2.3
12:12 18.2 12.4 69 1017.8 11.4 W 13.0 0.0 2.3
12:13 18.2 12.4 69 1017.9 11.4 W 13.0 0.0 2.3
12:14 18.4 12.6 69 1017.9 10.7 N 13.0 0.0 2.3
12:15 18.4 12.6 69 1018.0 10.7 N 11.4 0.0 2.3
12:16 18.4 12.6 69 1018.1 10.7 N 11.4 0.0 2.3
12:17 18.6 12.4 67 1017.8 8.3 SE 11.4 0.0 2.3
12:18 18.6 12.4 67 1018.0 7.6 NW 11.4 0.0 2.3
12:19 18.6 12.4 67 1017.9 7.6 NW 11.4 0.0 2.3
12:20 18.8 12.8 68 1018.0 8.3 S 11.4 0.0 2.3
12:21 18.8 12.8 68 1018.1 8.3 S 11.4 0.0 2.3
12:22 18.8 12.3 66 1018.0 9.8 SW 11.4 0.0 2.3
12:23 18.7 11.8 64 1018.1 8.3 NW 10.7 0.0 2.3
12:24 18.8 12.3 66 1018.0 9.8 E 10.7 0.0 2.3
12:25 18.8 12.3 66 1018.0 6.9 NE 10.7 0.0 2.3
12:26 18.9 12.4 66 1018.2 11.4 N 11.4 0.0 2.3
12:27 18.9 12.2 65 1018.0 8.3 N 11.4 0.0 2.3
12:28 18.9 12.2 65 1018.0 8.3 N 11.4 0.0 2.3
12:29 18.7 11.5 63 1017.9 11.4 W 13.0 0.0 2.3
12:30 18.6 11.2 62 1018.0 13.0 NE 13.0 0.0 2.3
12:31 18.5 11.1 62 1018.1 13.0 NW 13.0 0.0 2.3
12:32 18.5 11.1 62 1018.1 13.0 NW 13.0 0.0 2.3
12:33 18.3 10.9 62 1018.2 12.1 NW 13.0 0.0 2.3
12:34 18.3 10.9 62 1017.9 12.1 NW 13.0 0.0 2.3
12:35 18.5 11.3 63 1018.1 13.0 NW 13.0 0.0 2.3
12:36 18.5 11.3 63 1018.1 13.0 NW 13.0 0.0 2.3
12:37 18.5 11.1 62 1018.0 9.2 NW 13.0 0.0 2.3
12:38 18.5 11.1 62 1018.1 9.2 NW 13.0 0.0 2.3
12:39 18.5 11.1 62 1018.1 9.2 NW 13.0 0.0 2.3
12:40 18.2 10.8 62 1018.3 12.1 NW 13.0 0.0 2.3
12:41 18.1 10.5 61 1018.2 9.8 SW 13.0 0.0 2.3
12:42 18.0 10.4 61 1018.0 9.8 WNW 13.0 0.0 2.3
12:43 18.0 10.4 61 1018.0 9.8 WNW 13.0 0.0 2.3
12:44 18.0 10.9 63 1018.2 11.4 W 13.0 0.0 2.3
12:45 18.2 11.0 63 1017.9 9.8 NW 13.0 0.0 2.3
12:46 18.3 11.4 64 1018.1 11.4 N 13.0 0.0 2.3
12:47 18.3 11.4 64 1018.1 7.6 NW 12.1 0.0 2.3
12:48 18.3 11.4 64 1018.1 7.6 NW 12.1 0.0 2.3
12:49 18.3 10.9 62 1018.2 8.3 W 12.1 0.0 2.3
12:50 18.2 10.6 61 1018.0 13.0 NW 13.0 0.0 2.3
12:51 18.2 10.6 61 1018.1 13.0 NW 13.0 0.0 2.3
12:52 18.2 10.6 61 1018.1 13.0 NW 13.0 0.0 2.3
12:53 18.2 10.6 61 1018.0 13.0 NW 13.0 0.0 2.3
12:54 18.3 10.9 62 1017.9 11.4 NE 13.0 0.0 2.3
12:55 18.4 11.0 62 1018.0 9.2 NW 13.0 0.0 2.3
12:56 18.5 10.8 61 1018.2 10.7 W 13.0 0.0 2.3
12:57 18.5 10.8 61 1018.1 10.7 NW 13.0 0.0 2.3
12:58 18.5 10.8 61 1018.0 10.7 NW 13.0 0.0 2.3
12:59 18.5 10.8 61 1018.3 10.7 NW 13.0 0.0 2.3
13:00 18.4 10.8 61 1018.2 6.0 NW 13.0 0.0 2.3
13:01 18.5 10.8 61 1018.3 7.6 N 13.0 0.0 2.3
13:02 18.5 10.8 61 1018.2 7.6 N 13.0 0.0 2.3
13:03 18.5 10.8 61 1018.1 7.6 N 11.4 0.0 2.3
13:04 18.5 10.8 61 1018.1 7.6 N 11.4 0.0 2.3
13:05 18.8 10.9 60 1018.0 10.7 NW 10.7 0.0 2.3
13:06 18.8 10.9 60 1018.1 10.7 NW 10.7 0.0 2.3
13:07 18.7 10.8 60 1018.0 9.2 N 10.7 0.0 2.3
13:08 18.7 10.8 60 1018.0 8.3 NW 10.7 0.0 2.3
13:09 18.7 10.8 60 1018.0 8.3 NW 10.7 0.0 2.3
13:10 19.0 11.3 61 1018.2 9.2 WNW 10.7 0.0 2.3
13:11 19.0 11.3 61 1018.2 9.2 WNW 10.7 0.0 2.3
13:12 19.0 11.3 61 1018.1 9.2 WNW 10.7 0.0 2.3
13:13 19.0 11.3 61 1018.1 9.2 WNW 10.7 0.0 2.3
13:14 19.0 11.3 61 1018.1 9.2 WNW 10.7 0.0 2.3
13:15 18.7 11.0 61 1017.9 9.2 W 10.7 0.0 2.3
13:16 18.7 11.0 61 1018.1 9.2 W 10.7 0.0 2.3
13:17 19.0 11.6 62 1018.0 10.7 NW 10.7 0.0 2.3
13:18 19.0 11.6 62 1018.2 10.7 NW 10.7 0.0 2.3
13:19 19.0 11.6 62 1018.1 10.7 NW 10.7 0.0 2.3
13:20 19.4 11.7 61 1018.1 9.8 N 10.7 0.0 2.3
13:21 19.4 11.7 61 1018.1 9.8 N 10.7 0.0 2.3
13:22 19.4 11.7 61 1018.2 9.8 N 10.7 0.0 2.3
13:23 19.3 11.6 61 1018.0 6.9 WNW 10.7 0.0 2.3
13:24 19.3 11.6 61 1018.4 6.9 WNW 10.7 0.0 2.3
13:25 19.4 11.7 61 1018.1 10.7 N 10.7 0.0 2.3
13:26 19.4 11.7 61 1018.2 10.7 N 10.7 0.0 2.3
13:27 19.3 11.4 60 1018.0 9.2 W 10.7 0.0 2.3
13:28 19.3 11.4 60 1018.2 9.2 NW 10.7 0.0 2.3
13:29 19.2 11.3 60 1018.3 6.9 NW 10.7 0.0 2.3
13:30 19.1 11.2 60 1018.1 8.3 NW 10.7 0.0 2.3
13:31 19.1 11.2 60 1018.3 8.3 NW 10.7 0.0 2.3
13:32 19.1 11.2 60 1018.3 8.3 NW 10.7 0.0 2.3
13:33 19.1 11.2 60 1018.1 8.3 NW 10.7 0.0 2.3
13:34 19.0 11.3 61 1018.2 9.8 NW 10.7 0.0 2.3
13:35 19.0 11.1 60 1018.1 10.7 W 10.7 0.0 2.3
13:36 19.0 11.1 60 1018.1 10.7 W 10.7 0.0 2.3
13:37 19.0 11.1 60 1018.3 10.7 W 10.7 0.0 2.3
13:38 19.0 11.1 60 1018.3 10.7 W 10.7 0.0 2.3
13:39 19.4 11.7 61 1018.3 9.8 E 10.7 0.0 2.3
13:40 19.5 11.8 61 1018.3 8.3 NNW 10.7 0.0 2.3
13:41 19.5 11.5 60 1018.4 6.9 N 10.7 0.0 2.3
13:42 19.5 11.5 60 1018.2 6.9 N 10.7 0.0 2.3
13:43 19.5 11.0 58 1018.3 9.8 N 10.7 0.0 2.3
13:44 19.5 11.0 58 1018.0 9.8 N 10.7 0.0 2.3
13:45 19.5 11.0 58 1018.3 9.8 N 10.7 0.0 2.3
13:46 19.5 11.0 58 1018.3 9.8 N 10.7 0.0 2.3
13:47 19.5 11.0 58 1018.1 9.8 N 10.7 0.0 2.3
13:48 19.5 11.0 58 1018.2 9.8 N 9.8 0.0 2.3
13:49 19.5 11.0 58 1018.1 9.8 N 9.8 0.0 2.3
13:50 19.6 10.9 57 1018.3 9.2 W 9.8 0.0 2.3
13:51 19.6 10.9 57 1018.3 9.2 W 9.8 0.0 2.3
13:52 19.7 11.7 60 1018.2 5.4 NW 9.8 0.0 2.3
13:53 19.8 11.8 60 1018.3 8.3 W 9.8 0.0 2.3
13:54 20.0 12.0 60 1018.2 9.2 NW 9.8 0.0 2.3
13:55 20.1 12.1 60 1018.2 12.1 NE 12.1 0.0 2.3
13:56 20.1 11.8 59 1018.4 12.1 NW 12.1 0.0 2.3
13:57 20.1 11.6 58 1018.3 7.6 NW 12.1 0.0 2.3
13:58 20.2 12.2 60 1018.5 7.6 N 12.1 0.0 2.3
13:59 20.2 12.2 60 1018.2 7.6 N 12.1 0.0 2.3
14:00 20.2 12.2 60 1018.2 7.6 N 12.1 0.0 2.3
14:01 20.2 12.2 60 1018.2 7.6 N 12.1 0.0 2.3
14:02 20.2 12.2 60 1018.4 7.6 N 12.1 0.0 2.3
14:03 20.2 12.2 60 1018.1 7.6 N 12.1 0.0 2.3
14:04 20.2 12.2 60 1018.3 7.6 N 12.1 0.0 2.3
14:05 20.2 12.2 60 1018.2 7.6 N 12.1 0.0 2.3
14:06 20.1 11.6 58 1018.3 10.7 NW 10.7 0.0 2.3
14:07 20.0 11.2 57 1018.5 11.4 NW 11.4 0.0 2.3
14:08 19.9 10.9 56 1018.5 11.4 W 11.4 0.0 2.3
14:09 19.8 10.5 55 1018.4 9.8 W 11.4 0.0 2.3
14:10 19.8 10.5 55 1018.4 9.8 W 11.4 0.0 2.3
14:11 19.4 10.1 55 1018.5 12.1 NW 12.1 0.0 2.3
14:12 19.4 10.1 55 1018.3 12.1 NW 12.1 0.0 2.3
14:13 19.5 11.0 58 1018.7 11.4 W 12.1 0.0 2.3
14:14 19.5 11.0 58 1018.6 11.4 W 12.1 0.0 2.3
14:15 19.7 11.2 58 1018.3 8.3 W 12.1 0.0 2.3
14:16 19.7 11.2 58 1018.4 8.3 W 12.1 0.0 2.3
14:17 19.8 11.3 58 1018.6 16.8 W 16.8 0.0 2.3
14:18 19.7 11.0 57 1018.6 11.4 N 16.8 0.0 2.3
14:19 19.7 11.0 57 1018.6 11.4 N 16.8 0.0 2.3
14:20 19.5 10.5 56 1018.5 12.1 NW 16.8 0.0 2.3
14:21 19.5 10.5 56 1018.6 12.1 NW 16.8 0.0 2.3
14:22 19.3 10.3 56 1018.6 14.5 W 16.8 0.0 2.3
14:23 19.2 10.0 55 1018.5 14.5 W 16.8 0.0 2.3
14:24 19.2 10.0 55 1018.5 14.5 W 16.8 0.0 2.3
14:25 19.2 10.0 55 1018.5 14.5 W 16.8 0.0 2.3
14:26 18.7 10.3 58 1018.6 10.7 W 16.8 0.0 2.3
14:27 18.7 10.5 59 1018.7 9.8 W 14.5 0.0 2.3
14:28 18.7 10.5 59 1018.7 9.8 W 14.5 0.0 2.3
14:29 18.7 10.5 59 1018.4 9.8 W 14.5 0.0 2.3
14:30 18.7 10.5 59 1018.7 9.8 W 14.5 0.0 2.3
14:31 18.8 10.9 60 1018.5 13.6 NW 14.5 0.0 2.3
14:32 18.8 10.9 60 1018.4 13.6 NW 14.5 0.0 2.3
14:33 18.7 10.8 60 1018.7 6.0 NE 14.5 0.0 2.3
14:34 18.7 10.8 60 1018.4 8.3 NW 14.5 0.0 2.3
14:35 18.7 10.8 60 1018.6 8.3 NW 14.5 0.0 2.3
14:36 18.7 10.8 60 1018.7 9.2 W 14.5 0.0 2.3
14:37 18.6 10.7 60 1018.5 8.3 W 13.6 0.0 2.3
14:38 18.5 10.6 60 1018.4 9.8 W 13.6 0.0 2.3
14:39 18.5 10.6 60 1018.4 11.4 S 13.6 0.0 2.3
14:40 18.4 10.3 59 1018.5 9.2 NW 13.6 0.0 2.3
14:41 18.4 10.5 60 1018.5 6.0 NW 13.6 0.0 2.3
14:42 18.5 10.8 61 1018.3 8.3 NW 13.6 0.0 2.3
14:43 18.7 11.0 61 1018.4 6.0 WNW 11.4 0.0 2.3
14:44 18.7 11.0 61 1018.4 6.0 WNW 11.4 0.0 2.3
14:45 18.9 11.0 60 1018.5 7.6 N 11.4 0.0 2.3
14:46 19.0 11.1 60 1018.3 9.2 N 11.4 0.0 2.3
14:47 19.0 10.8 59 1018.5 9.2 NW 11.4 0.0 2.3
14:48 19.0 10.3 57 1018.3 9.2 E 11.4 0.0 2.3
14:49 19.0 10.3 57 1018.3 9.8 NNW 11.4 0.0 2.3
14:50 19.0 10.0 56 1018.3 8.3 N 9.8 0.0 2.3
14:51 18.9 10.2 57 1018.5 9.2 W 9.8 0.0 2.3
14:52 18.9 10.2 57 1018.7 9.2 W 9.8 0.0 2.3
14:53 18.8 10.9 60 1018.4 9.2 W 9.8 0.0 2.3
14:54 18.7 10.8 60 1018.5 11.4 SW 11.4 0.0 2.3
14:55 18.7 10.8 60 1018.6 12.1 W 12.1 0.0 2.3
14:56 18.6 10.7 60 1018.5 10.7 NW 12.1 0.0 2.3
14:57 18.6 10.7 60 1018.5 10.7 NW 12.1 0.0 2.3
14:58 18.4 10.5 60 1018.6 6.0 NW 12.1 0.0 2.3
14:59 18.4 10.8 61 1018.6 6.9 NW 12.1 0.0 2.3
15:00 18.4 10.8 61 1018.6 9.2 W 12.1 0.0 2.3
15:01 18.4 10.8 61 1018.5 9.2 W 12.1 0.0 2.3
15:02 18.4 10.8 61 1018.6 9.2 W 12.1 0.0 2.3
15:03 18.4 10.8 61 1018.6 9.2 W 12.1 0.0 2.3
15:04 18.4 10.8 61 1018.6 9.2 W 12.1 0.0 2.3
15:05 18.4 10.8 61 1018.5 9.2 W 12.1 0.0 2.3
15:06 18.4 10.5 60 1018.5 11.4 W 11.4 0.0 2.3
15:07 18.4 10.5 60 1018.7 8.3 NW 11.4 0.0 2.3
15:08 18.4 10.5 60 1018.7 9.8 SW 11.4 0.0 2.3
15:09 18.3 10.4 60 1018.6 9.2 NW 11.4 0.0 2.3
15:10 18.2 10.3 60 1018.7 9.2 N 11.4 0.0 2.3
15:11 18.2 10.3 60 1018.8 10.7 NW 11.4 0.0 2.3
15:12 18.2 10.3 60 1018.6 11.4 W 11.4 0.0 2.3
15:13 18.2 10.3 60 1018.6 11.4 W 11.4 0.0 2.3
15:14 18.1 10.5 61 1018.7 9.2 NW 11.4 0.0 2.3
15:15 18.2 10.6 61 1018.5 6.0 NW 11.4 0.0 2.3
15:16 18.2 10.6 61 1018.6 8.3 SW 11.4 0.0 2.3
15:17 18.3 10.7 61 1018.8 8.3 W 11.4 0.0 2.3
15:19 18.3 10.7 61 1018.6 7.6 SW 11.4 0.0 2.3
15:20 18.4 10.8 61 1018.8 6.9 W 11.4 0.0 2.3
15:21 18.4 10.5 60 1019.0 8.3 NW 11.4 0.0 2.3
15:22 18.4 10.5 60 1018.8 8.3 NW 11.4 0.0 2.3
15:23 18.3 10.2 59 1018.6 9.8 W 9.8 0.0 2.3
15:24 18.3 10.2 59 1018.7 9.8 W 9.8 0.0 2.3
15:25 18.3 10.2 59 1018.8 10.7 SW 10.7 0.0 2.3
15:26 18.2 9.8 58 1018.9 9.2 NW 10.7 0.0 2.3
15:27 18.1 9.7 58 1018.8 9.2 W 10.7 0.0 2.3
15:28 18.1 9.7 58 1018.8 9.8 NW 10.7 0.0 2.3
15:29 18.1 10.0 59 1018.8 6.9 N 10.7 0.0 2.3
15:30 18.1 10.2 60 1018.6 6.9 W 10.7 0.0 2.3
15:31 18.1 10.2 60 1018.6 6.9 W 10.7 0.0 2.3
15:32 18.1 10.2 60 1018.9 6.9 W 10.7 0.0 2.3
15:33 18.1 10.2 60 1018.8 10.7 W 10.7 0.0 2.3
15:34 18.1 10.2 60 1018.8 9.2 N 10.7 0.0 2.3
15:35 18.2 10.3 60 1018.8 6.9 SW 10.7 0.0 2.3
15:36 18.2 10.3 60 1018.9 9.8 W 10.7 0.0 2.3
15:37 18.1 10.2 60 1018.9 11.4 NW 14.5 0.0 2.3
15:38 18.1 9.7 58 1018.9 9.2 NW 14.5 0.0 2.3
15:39 18.1 10.0 59 1019.1 9.2 W 14.5 0.0 2.3
15:40 18.1 10.0 59 1019.1 11.4 W 14.5 0.0 2.3
15:41 18.1 9.7 58 1018.9 11.4 W 14.5 0.0 2.3
15:42 18.0 9.9 59 1019.0 10.7 W 14.5 0.0 2.3
15:43 18.0 9.9 59 1018.9 8.3 W 14.5 0.0 2.3
15:44 18.1 10.0 59 1019.0 9.8 NW 14.5 0.0 2.3
15:45 18.1 10.0 59 1018.9 9.2 NW 14.5 0.0 2.3
15:46 18.1 9.7 58 1018.9 10.7 NW 14.5 0.0 2.3
15:47 18.1 9.7 58 1019.2 7.6 W 11.4 0.0 2.3
15:48 18.2 9.8 58 1018.9 11.4 W 11.4 0.0 2.3
15:49 18.2 9.3 56 1019.0 12.1 W 12.1 0.0 2.3
15:50 18.2 9.6 57 1019.0 8.3 W 12.1 0.0 2.3
15:51 18.3 9.6 57 1018.9 7.6 W 12.1 0.0 2.3
15:52 18.5 9.8 57 1018.9 9.8 NW 12.1 0.0 2.3
15:53 18.6 9.7 56 1018.9 11.4 WNW 12.1 0.0 2.3
15:54 18.6 9.7 56 1019.0 7.6 N 12.1 0.0 2.3
15:55 18.6 9.7 56 1019.0 6.9 SW 12.1 0.0 2.3
15:56 18.7 10.0 57 1018.7 5.4 NW 12.1 0.0 2.3
15:57 18.7 10.3 58 1018.8 6.9 N 12.1 0.0 2.3
15:58 18.8 9.6 55 1018.9 8.3 N 12.1 0.0 2.3
15:59 18.8 9.6 55 1018.9 8.3 N 12.1 0.0 2.3
16:00 18.8 9.3 54 1018.9 7.6 NW 11.4 0.0 2.3
16:01 18.8 9.3 54 1019.0 10.7 W 11.4 0.0 2.3
16:02 18.8 9.3 54 1018.9 10.7 W 11.4 0.0 2.3
16:03 18.8 9.6 55 1019.0 10.7 W 11.4 0.0 2.3
16:04 18.7 9.5 55 1019.1 9.2 NW 10.7 0.0 2.3
16:05 18.7 9.5 55 1018.9 9.2 N 10.7 0.0 2.3
16:06 18.7 9.8 56 1018.7 8.3 NW 10.7 0.0 2.3
16:07 18.7 9.8 56 1019.1 8.3 W 10.7 0.0 2.3
16:08 18.7 10.0 57 1018.7 6.9 NW 10.7 0.0 2.3
16:09 18.7 10.0 57 1019.0 7.6 N 10.7 0.0 2.3
16:10 18.7 10.0 57 1018.9 10.7 W 10.7 0.0 2.3
16:11 18.7 10.3 58 1018.7 7.6 W 10.7 0.0 2.3
16:12 18.7 10.0 57 1019.0 10.7 W 10.7 0.0 2.3
16:13 18.7 10.0 57 1018.9 9.2 W 10.7 0.0 2.3
16:14 18.7 10.0 57 1018.9 7.6 W 10.7 0.0 2.3
16:15 18.7 10.0 57 1018.9 10.7 W 10.7 0.0 2.3
16:16 18.7 9.8 56 1018.9 9.2 NW 10.7 0.0 2.3
16:17 18.7 10.5 59 1018.9 4.5 W 10.7 0.0 2.3
16:18 18.8 10.9 60 1018.7 7.6 W 10.7 0.0 2.3
16:19 18.9 10.5 58 1018.9 6.9 NW 10.7 0.0 2.3
16:20 19.0 10.3 57 1018.8 6.9 W 10.7 0.0 2.3
16:21 19.1 10.1 56 1018.9 6.9 NE 10.7 0.0 2.3
16:22 19.2 10.5 57 1018.8 7.6 W 10.7 0.0 2.3
16:23 19.4 10.7 57 1018.8 6.9 S 10.7 0.0 2.3
16:24 19.5 10.8 57 1018.9 8.3 W 10.7 0.0 2.3
16:25 19.5 10.5 56 1018.9 8.3 NW 9.2 0.0 2.3
16:26 19.5 10.0 54 1018.9 6.9 N 9.8 0.0 2.3
16:27 19.4 9.9 54 1018.7 9.2 NW 9.8 0.0 2.3
16:28 19.4 9.9 54 1018.9 9.2 W 9.8 0.0 2.3
16:29 19.3 9.8 54 1018.9 7.6 W 9.8 0.0 2.3
16:30 19.0 9.8 55 1018.7 9.2 W 9.8 0.0 2.3
16:31 19.0 9.8 55 1018.7 9.2 W 9.8 0.0 2.3
16:32 18.9 9.7 55 1019.0 9.8 SW 9.8 0.0 2.3
16:33 18.7 9.8 56 1018.8 12.1 W 12.1 0.0 2.3
16:34 18.5 9.6 56 1018.6 12.1 N 12.1 0.0 2.3
16:35 18.5 9.8 57 1018.9 6.9 NW 12.1 0.0 2.3
16:36 18.5 10.3 59 1018.7 6.9 NW 12.1 0.0 2.3
16:37 18.6 10.7 60 1018.6 6.9 NW 12.1 0.0 2.3
16:38 18.6 10.7 60 1018.9 6.9 NW 12.1 0.0 2.3
16:39 18.7 10.0 57 1018.7 8.3 W 12.1 0.0 2.3
16:40 18.7 9.8 56 1018.7 12.1 W 12.1 0.0 2.3
16:41 18.7 9.8 56 1018.7 12.1 W 12.1 0.0 2.3
16:42 18.7 9.8 56 1018.8 9.8 W 12.1 0.0 2.3
16:43 18.7 9.5 55 1018.8 9.8 W 12.1 0.0 2.3
16:44 18.7 9.8 56 1018.7 8.3 NW 12.1 0.0 2.3
16:45 18.6 9.4 55 1018.5 9.2 NW 12.1 0.0 2.3
16:46 18.5 9.6 56 1018.6 7.6 W 12.1 0.0 2.3
16:47 18.5 9.6 56 1018.6 7.6 W 12.1 0.0 2.3
16:48 18.5 9.6 56 1018.6 7.6 W 12.1 0.0 2.3
16:49 18.4 9.7 57 1018.8 8.3 NW 12.1 0.0 2.3
16:50 18.4 9.7 57 1018.7 8.3 NW 12.1 0.0 2.3
16:51 18.3 9.6 57 1018.8 10.7 N 12.1 0.0 2.3
16:52 18.3 9.6 57 1018.7 9.2 N 10.7 0.0 2.3
16:53 18.3 9.6 57 1018.7 7.6 NE 11.4 0.0 2.3
16:54 18.4 9.7 57 1018.5 9.8 NW 11.4 0.0 2.3
16:55 18.4 9.5 56 1018.8 9.2 W 11.4 0.0 2.3
16:56 18.4 9.7 57 1018.8 9.2 W 11.4 0.0 2.3
16:57 18.4 10.0 58 1018.7 6.9 N 11.4 0.0 2.3
16:58 18.5 10.1 58 1018.7 8.3 W 11.4 0.0 2.3
16:59 18.5 9.8 57 1018.6 8.3 W 11.4 0.0 2.3
17:00 18.4 9.7 57 1018.7 11.4 SW 11.4 0.0 2.3
17:01 18.4 9.7 57 1018.5 11.4 SW 11.4 0.0 2.3
17:02 18.4 9.7 57 1018.7 11.4 SW 11.4 0.0 2.3
17:03 18.2 9.8 58 1018.7 9.2 W 11.4 0.0 2.3
17:04 18.1 9.7 58 1018.8 9.8 E 11.4 0.0 2.3
17:05 18.1 9.5 57 1018.7 9.8 W 11.4 0.0 2.3
17:06 18.0 9.1 56 1018.7 12.1 W 12.1 0.0 2.3
17:07 18.0 9.1 56 1018.7 10.7 W 12.1 0.0 2.3
17:08 18.0 9.1 56 1018.8 10.7 W 12.1 0.0 2.3
17:09 17.9 9.3 57 1018.8 8.3 W 12.1 0.0 2.3
17:10 17.9 9.5 58 1018.6 11.4 NW 12.1 0.0 2.3
17:11 17.9 9.5 58 1018.7 9.8 W 12.1 0.0 2.3
17:12 17.9 9.5 58 1018.6 9.2 NW 12.1 0.0 2.3
17:13 17.9 9.5 58 1018.7 9.2 NW 12.1 0.0 2.3
17:14 18.0 9.6 58 1018.6 9.2 W 12.1 0.0 2.3
17:15 18.0 9.9 59 1018.5 11.4 NW 12.1 0.0 2.3
17:16 18.0 9.9 59 1018.6 9.2 N 11.4 0.0 2.3
17:17 18.1 10.2 60 1018.6 6.0 W 11.4 0.0 2.3
17:19 18.2 10.3 60 1018.4 8.3 W 11.4 0.0 2.3
17:20 18.2 10.3 60 1018.4 7.6 N 11.4 0.0 2.3
17:21 18.2 10.3 60 1018.5 9.8 W 11.4 0.0 2.3
17:22 18.2 10.1 59 1018.4 8.3 NW 11.4 0.0 2.3
17:23 18.1 9.7 58 1018.7 6.9 N 11.4 0.0 2.3
17:24 18.1 9.7 58 1018.4 8.3 W 11.4 0.0 2.3
17:25 18.1 9.7 58 1018.8 11.4 W 11.4 0.0 2.3
17:26 18.0 9.6 58 1018.5 9.2 W 11.4 0.0 2.3
17:27 18.0 9.6 58 1018.5 11.4 NW 11.4 0.0 2.3
17:28 18.0 9.6 58 1018.3 12.1 W 12.1 0.0 2.3
17:29 18.0 9.9 59 1018.5 12.1 N 12.1 0.0 2.3
17:30 18.0 9.9 59 1018.7 6.9 N 12.1 0.0 2.3
17:31 18.0 9.9 59 1018.6 8.3 N 12.1 0.0 2.3
17:32 18.0 9.9 59 1018.6 8.3 NW 12.1 0.0 2.3
17:33 18.0 9.6 58 1018.7 10.7 W 12.1 0.0 2.3
17:34 18.0 9.6 58 1018.5 8.3 W 12.1 0.0 2.3
17:35 18.0 9.9 59 1018.8 9.8 NW 12.1 0.0 2.3
17:36 18.1 10.0 59 1018.7 9.8 NW 12.1 0.0 2.3
17:37 18.1 10.0 59 1018.6 10.7 W 12.1 0.0 2.3
17:38 18.1 10.0 59 1018.7 13.6 W 13.6 0.0 2.3
17:39 18.0 9.6 58 1018.5 13.0 W 13.6 0.0 2.3
17:40 18.0 9.6 58 1018.7 9.8 W 13.6 0.0 2.3
17:41 17.9 9.5 58 1018.8 9.8 W 13.6 0.0 2.3
17:42 17.9 9.8 59 1018.4 9.2 NW 13.6 0.0 2.3
17:43 17.9 9.8 59 1018.6 8.3 W 13.6 0.0 2.3
17:44 18.0 10.1 60 1018.7 6.9 WNW 13.6 0.0 2.3
17:45 18.0 10.1 60 1018.6 8.3 W 13.6 0.0 2.3
17:46 18.0 10.1 60 1018.6 8.3 W 13.6 0.0 2.3
17:47 17.9 10.0 60 1018.7 11.4 SE 13.6 0.0 2.3
17:48 17.9 10.0 60 1018.8 8.3 W 13.6 0.0 2.3
17:49 17.9 10.0 60 1018.7 8.3 W 13.6 0.0 2.3
17:50 17.9 10.0 60 1018.5 9.2 W 13.0 0.0 2.3
17:51 17.9 9.8 59 1018.7 9.2 NW 11.4 0.0 2.3
17:52 17.9 9.8 59 1018.5 12.1 W 12.1 0.0 2.3
17:53 17.9 9.5 58 1018.6 9.8 NW 12.1 0.0 2.3
17:54 17.9 9.5 58 1018.6 9.8 W 12.1 0.0 2.3
17:55 17.8 9.4 58 1018.7 12.1 E 12.1 0.0 2.3
17:56 17.8 9.4 58 1018.6 12.1 W 12.1 0.0 2.3
17:57 17.8 9.4 58 1018.6 9.8 W 12.1 0.0 2.3
17:58 17.7 9.3 58 1018.7 10.7 W 12.1 0.0 2.3
17:59 17.6 9.2 58 1018.6 9.2 NW 12.1 0.0 2.3
18:00 17.6 9.5 59 1018.6 6.0 NW 12.1 0.0 2.3
18:01 17.6 9.5 59 1018.7 6.0 NW 12.1 0.0 2.3
18:02 17.6 9.5 59 1018.4 6.0 NW 12.1 0.0 2.3
18:03 17.6 9.8 60 1018.7 7.6 W 12.1 0.0 2.3
18:04 17.6 9.8 60 1018.7 8.3 NW 12.1 0.0 2.3
18:05 17.6 9.8 60 1018.5 9.2 W 12.1 0.0 2.3
18:06 17.6 9.8 60 1018.6 9.2 NW 12.1 0.0 2.3
18:07 17.6 9.8 60 1018.6 9.2 NW 10.7 0.0 2.3
18:08 17.6 9.8 60 1018.5 9.2 W 10.7 0.0 2.3
18:09 17.5 9.7 60 1018.7 9.2 NW 10.7 0.0 2.3
18:10 17.5 9.7 60 1018.7 11.4 NW 11.4 0.0 2.3
18:11 17.5 9.7 60 1018.6 11.4 NW 11.4 0.0 2.3
18:12 17.5 9.7 60 1018.5 9.8 W 11.4 0.0 2.3
18:13 17.4 10.1 62 1018.5 8.3 W 11.4 0.0 2.3
18:14 17.4 10.3 63 1018.7 6.0 W 11.4 0.0 2.3
18:15 17.4 10.3 63 1018.5 7.6 W 11.4 0.0 2.3
18:16 17.4 10.3 63 1018.5 7.6 W 11.4 0.0 2.3
18:17 17.3 10.2 63 1018.5 6.9 W 11.4 0.0 2.3
18:18 17.3 10.2 63 1018.6 6.9 W 11.4 0.0 2.3
18:19 17.3 10.2 63 1018.6 8.3 W 11.4 0.0 2.3
18:20 17.3 10.2 63 1018.6 8.3 ENE 11.4 0.0 2.3
18:21 17.3 10.2 63 1018.6 8.3 W 11.4 0.0 2.3
18:22 17.3 10.2 63 1018.7 10.7 W 10.7 0.0 2.3
18:23 17.3 10.2 63 1018.6 12.1 NW 12.1 0.0 2.3
18:24 17.2 10.1 63 1018.7 10.7 W 12.1 0.0 2.3
18:25 17.2 10.1 63 1018.6 9.8 NW 12.1 0.0 2.3
18:26 17.2 9.9 62 1018.4 10.7 W 12.1 0.0 2.3
18:27 17.2 10.1 63 1018.4 10.7 SW 12.1 0.0 2.3
18:28 17.2 10.1 63 1018.5 9.2 W 12.1 0.0 2.3
18:29 17.2 10.1 63 1018.5 9.2 N 12.1 0.0 2.3
18:30 17.1 10.0 63 1018.6 9.8 N 12.1 0.0 2.3
18:31 17.1 10.0 63 1018.6 9.8 N 12.1 0.0 2.3
18:32 17.1 10.0 63 1018.6 10.7 SW 12.1 0.0 2.3
18:33 17.1 10.0 63 1018.7 11.4 W 12.1 0.0 2.3
18:34 17.1 10.0 63 1018.6 12.1 W 12.1 0.0 2.3
18:35 17.1 10.0 63 1018.5 13.0 W 13.0 0.0 2.3
18:36 17.1 10.0 63 1018.7 12.1 W 13.0 0.0 2.3
18:37 17.0 9.9 63 1018.5 9.2 NW 13.0 0.0 2.3
18:38 17.0 10.1 64 1018.6 9.8 N 13.0 0.0 2.3
18:39 17.0 10.1 64 1018.5 9.8 N 13.0 0.0 2.3
18:40 17.0 10.1 64 1018.8 7.6 W 13.0 0.0 2.3
18:41 17.0 10.1 64 1018.6 7.6 W 13.0 0.0 2.3
18:42 16.9 10.1 64 1018.6 9.8 W 13.0 0.0 2.3
18:43 16.9 10.1 64 1018.6 9.8 NW 13.0 0.0 2.3
18:44 16.9 10.1 64 1018.6 7.6 NW 13.0 0.0 2.3
18:45 16.9 10.1 64 1018.7 8.3 W 12.1 0.0 2.3
18:46 16.9 10.1 64 1018.5 9.8 W 12.1 0.0 2.3
18:47 16.9 10.1 64 1018.6 11.4 SW 11.4 0.0 2.3
18:48 16.8 10.0 64 1018.5 11.4 NW 11.4 0.0 2.3
18:49 16.8 10.0 64 1018.5 9.2 NW 11.4 0.0 2.3
18:50 16.8 10.0 64 1018.7 9.8 SW 11.4 0.0 2.3
18:51 16.8 10.0 64 1018.6 8.3 W 11.4 0.0 2.3
18:52 16.8 10.0 64 1018.6 9.8 W 11.4 0.0 2.3
18:53 16.8 10.0 64 1018.6 9.8 W 11.4 0.0 2.3
18:54 16.8 10.0 64 1018.5 8.3 NW 11.4 0.0 2.3
18:55 16.8 10.0 64 1018.8 8.3 W 11.4 0.0 2.3
18:56 16.7 9.9 64 1018.6 9.2 SW 11.4 0.0 2.3
18:57 16.7 9.9 64 1018.5 9.2 WNW 11.4 0.0 2.3
18:58 16.7 10.1 65 1018.4 9.2 NW 9.8 0.0 2.3
18:59 16.8 10.2 65 1018.6 9.2 W 9.8 0.0 2.3
19:00 16.8 10.4 66 1018.8 6.9 W 9.8 0.0 2.3
19:01 16.8 10.4 66 1018.5 6.9 W 9.8 0.0 2.3
19:02 16.8 10.4 66 1018.6 6.9 W 9.8 0.0 2.3
19:03 16.8 10.4 66 1018.7 6.9 W 9.8 0.0 2.3
19:04 16.8 10.4 66 1018.5 6.9 W 9.2 0.0 2.3
19:05 16.8 10.4 66 1018.6 6.9 W 9.2 0.0 2.3
19:06 17.3 10.7 65 1018.4 12.1 NW 12.1 0.0 2.3
19:07 17.2 10.6 65 1018.4 7.6 NNW 12.1 0.0 2.3
19:08 17.2 10.3 64 1018.4 6.9 W 12.1 0.0 2.3
19:10 17.1 10.2 64 1018.7 9.2 N 12.1 0.0 2.3
19:11 17.1 10.2 64 1018.3 9.2 W 12.1 0.0 2.3
19:12 17.0 10.1 64 1018.5 9.8 W 12.1 0.0 2.3
19:13 17.0 10.1 64 1018.5 9.8 S 12.1 0.0 2.3
19:14 17.0 10.1 64 1018.6 7.6 SW 12.1 0.0 2.3
19:15 17.0 10.1 64 1018.5 9.8 NW 12.1 0.0 2.3
19:16 17.0 10.1 64 1018.5 9.8 NW 12.1 0.0 2.3
19:17 17.0 10.4 65 1018.4 8.3 SW 12.1 0.0 2.3
19:18 17.0 10.4 65 1018.6 7.6 SW 12.1 0.0 2.3
19:19 17.0 10.4 65 1018.7 7.6 SW 12.1 0.0 2.3
19:21 17.0 10.4 65 1018.7 10.7 W 10.7 0.0 2.3
19:22 16.9 10.3 65 1018.5 10.7 W 10.7 0.0 2.3
19:23 16.9 10.1 64 1018.6 8.3 NW 12.1 0.0 2.3
19:24 16.8 10.0 64 1018.5 11.4 W 12.1 0.0 2.3
19:25 16.8 10.0 64 1018.5 9.2 W 12.1 0.0 2.3
19:26 16.7 9.9 64 1018.5 8.3 W 12.1 0.0 2.3
19:27 16.7 9.9 64 1018.6 9.2 NW 12.1 0.0 2.3
19:28 16.7 9.9 64 1018.6 6.9 NE 12.1 0.0 2.3
19:29 16.7 9.9 64 1018.6 6.0 NW 12.1 0.0 2.3
19:30 16.7 10.1 65 1018.4 6.9 W 12.1 0.0 2.3
19:31 16.7 10.1 65 1018.7 6.9 W 12.1 0.0 2.3
19:32 16.7 10.1 65 1018.8 7.6 WNW 12.1 0.0 2.3
19:33 16.7 10.1 65 1018.6 9.2 SW 12.1 0.0 2.3
19:34 16.6 10.0 65 1018.8 8.3 W 11.4 0.0 2.3
19:35 16.7 10.1 65 1018.9 8.3 WNW 9.2 0.0 2.3
19:36 16.6 10.0 65 1018.6 6.9 NW 9.2 0.0 2.3
19:37 16.7 10.3 66 1018.7 6.0 NW 9.2 0.0 2.3
19:38 16.7 10.3 66 1018.8 5.4 NW 9.2 0.0 2.3
19:39 16.7 10.3 66 1018.8 5.4 W 9.2 0.0 2.3
19:40 16.7 10.3 66 1018.8 5.4 W 9.2 0.0 2.3
19:41 16.7 10.3 66 1018.7 4.5 W 9.2 0.0 2.3
19:42 16.7 10.3 66 1019.0 9.2 W 9.2 0.0 2.3
19:43 16.7 10.3 66 1018.6 9.2 W 9.2 0.0 2.3
19:44 16.6 10.2 66 1018.9 8.3 SW 9.2 0.0 2.3
19:45 16.6 10.0 65 1018.8 7.6 NW 9.2 0.0 2.3
19:46 16.6 10.0 65 1018.9 6.0 W 9.2 0.0 2.3
19:47 16.6 10.2 66 1018.8 7.6 W 9.2 0.0 2.3
19:48 16.5 10.1 66 1018.7 8.3 W 9.2 0.0 2.3
19:49 16.5 10.1 66 1018.6 9.2 W 9.2 0.0 2.3
19:50 16.5 9.9 65 1019.0 10.7 W 10.7 0.0 2.3
19:51 16.4 9.8 65 1018.8 9.2 WNW 10.7 0.0 2.3
19:52 16.4 9.8 65 1019.0 7.6 W 10.7 0.0 2.3
19:53 16.3 9.9 66 1018.8 7.6 W 10.7 0.0 2.3
19:54 16.3 9.9 66 1018.9 11.4 WNW 11.4 0.0 2.3
19:55 16.3 9.9 66 1018.9 11.4 WNW 11.4 0.0 2.3
19:56 16.2 9.8 66 1018.9 8.3 W 11.4 0.0 2.3
19:57 16.2 9.8 66 1019.0 7.6 W 11.4 0.0 2.3
19:58 16.1 9.8 66 1018.8 8.3 N 11.4 0.0 2.3
19:59 16.1 9.8 66 1019.0 6.9 SW 11.4 0.0 2.3
20:00 16.1 10.0 67 1019.1 6.9 W 11.4 0.0 2.3
20:01 16.1 10.0 67 1019.0 6.9 W 11.4 0.0 2.3
20:02 16.1 10.0 67 1018.9 6.9 W 11.4 0.0 2.3
20:03 16.1 10.0 67 1019.0 6.9 W 11.4 0.0 2.3
20:04 16.1 10.0 67 1018.9 6.9 W 11.4 0.0 2.3
20:05 16.1 10.0 67 1019.0 6.9 W 8.3 0.0 2.3
20:06 15.9 10.0 68 1018.9 6.0 N 10.7 0.0 2.3
20:07 15.9 10.0 68 1018.9 6.0 N 10.7 0.0 2.3
20:08 15.9 10.0 68 1018.9 6.0 N 10.7 0.0 2.3
20:09 15.9 10.0 68 1019.1 6.9 NW 10.7 0.0 2.3
20:10 15.9 10.0 68 1019.1 7.6 W 10.7 0.0 2.3
20:11 15.8 9.9 68 1019.0 8.3 W 10.7 0.0 2.3
20:12 15.8 9.9 68 1019.0 8.3 W 10.7 0.0 2.3
20:13 15.8 9.9 68 1019.1 7.6 W 10.7 0.0 2.3
20:14 15.8 10.1 69 1019.1 9.2 W 10.7 0.0 2.3
20:15 15.7 10.0 69 1019.3 8.3 W 12.1 0.0 2.3
20:16 15.7 10.0 69 1019.2 8.3 W 12.1 0.0 2.3
20:17 15.7 10.0 69 1019.0 9.2 WNW 12.1 0.0 2.3
20:18 15.6 9.9 69 1019.2 8.3 W 12.1 0.0 2.3
20:19 15.6 9.9 69 1019.3 9.2 W 12.1 0.0 2.3
20:20 15.6 9.9 69 1019.2 10.7 N 12.1 0.0 2.3
20:21 15.6 10.2 70 1019.1 9.8 W 12.1 0.0 2.3
20:22 15.5 10.1 70 1019.0 7.6 W 12.1 0.0 2.3
20:23 15.5 10.1 70 1019.0 7.6 W 12.1 0.0 2.3
20:24 15.5 10.1 70 1019.1 8.3 NW 12.1 0.0 2.3
20:25 15.4 10.0 70 1019.1 8.3 NW 12.1 0.0 2.3
20:26 15.4 10.0 70 1019.0 8.3 W 10.7 0.0 2.3
20:27 15.4 10.0 70 1019.2 7.6 W 10.7 0.0 2.3
20:28 15.4 10.0 70 1019.2 7.6 W 10.7 0.0 2.3
20:29 15.4 10.0 70 1019.1 6.0 NNW 10.7 0.0 2.3
20:30 15.3 9.9 70 1019.0 4.5 NW 10.7 0.0 2.3
20:31 15.3 10.1 71 1019.1 6.0 NW 8.3 0.0 2.3
20:32 15.3 10.1 71 1019.0 5.4 W 8.3 0.0 2.3
20:33 15.3 10.1 71 1019.1 6.0 SW 8.3 0.0 2.3
20:34 15.3 10.1 71 1019.3 5.4 W 8.3 0.0 2.3
20:35 15.3 10.1 71 1019.1 6.0 WNW 8.3 0.0 2.3
20:36 15.3 10.1 71 1018.9 6.0 WNW 7.6 0.0 2.3
20:37 15.3 10.1 71 1019.1 5.4 W 7.6 0.0 2.3
20:38 15.2 10.0 71 1019.1 6.0 W 6.9 0.0 2.3
20:39 15.2 10.0 71 1019.1 4.5 W 6.9 0.0 2.3
20:40 15.2 10.0 71 1019.3 4.5 W 6.9 0.0 2.3
20:41 15.2 10.2 72 1019.1 6.0 W 6.9 0.0 2.3
20:42 15.2 10.2 72 1019.2 6.0 W 6.9 0.0 2.3
20:43 15.2 10.2 72 1019.2 6.0 W 6.9 0.0 2.3
20:44 15.2 10.2 72 1019.1 5.4 W 6.9 0.0 2.3
20:45 15.2 10.2 72 1019.2 4.5 W 6.0 0.0 2.3
20:46 15.1 10.1 72 1019.1 3.8 W 6.0 0.0 2.3
20:47 15.1 10.1 72 1019.2 4.5 SW 6.0 0.0 2.3
20:48 15.1 10.1 72 1018.9 4.5 SW 6.0 0.0 2.3
20:49 15.1 10.1 72 1019.0 3.8 NW 6.0 0.0 2.3
20:50 15.1 10.1 72 1018.9 6.0 W 6.0 0.0 2.3
20:51 15.1 10.1 72 1019.1 3.8 W 6.0 0.0 2.3
20:52 15.1 10.3 73 1019.2 3.8 W 6.0 0.0 2.3
20:53 15.1 10.3 73 1018.9 5.4 NW 6.0 0.0 2.3
20:54 15.1 10.3 73 1019.1 5.4 W 6.0 0.0 2.3
20:55 15.1 10.3 73 1019.0 5.4 NW 6.0 0.0 2.3
20:56 15.1 10.3 73 1019.0 5.4 W 6.0 0.0 2.3
20:57 15.1 10.3 73 1018.8 3.8 W 6.0 0.0 2.3
20:58 15.1 10.3 73 1019.0 4.5 W 6.0 0.0 2.3
20:59 15.1 10.3 73 1019.1 3.8 NW 6.0 0.0 2.3
21:00 15.0 10.2 73 1019.1 3.1 N 6.0 0.0 2.3
21:01 15.0 10.2 73 1018.9 3.8 W 5.4 0.0 2.3
21:02 15.0 10.2 73 1019.1 3.8 W 5.4 0.0 2.3
21:03 15.0 10.2 73 1018.9 3.1 SW 5.4 0.0 2.3
21:04 15.0 10.2 73 1019.1 3.8 WNW 5.4 0.0 2.3
21:05 15.0 10.2 73 1019.0 5.4 W 5.4 0.0 2.3
21:06 15.0 10.2 73 1019.2 3.8 W 5.4 0.0 2.3
21:07 15.0 10.2 73 1019.0 4.5 W 5.4 0.0 2.3
21:08 15.0 10.2 73 1019.0 4.5 W 5.4 0.0 2.3
21:09 15.0 10.2 73 1018.8 5.4 W 5.4 0.0 2.3
21:10 15.0 10.4 74 1019.1 3.8 W 5.4 0.0 2.3
21:11 15.0 10.4 74 1019.1 3.8 W 5.4 0.0 2.3
21:12 15.0 10.4 74 1019.1 3.1 W 5.4 0.0 2.3
21:13 15.0 10.4 74 1019.1 3.8 SW 5.4 0.0 2.3
21:14 15.0 10.4 74 1019.1 3.8 W 5.4 0.0 2.3
21:15 15.0 10.4 74 1019.1 3.1 W 5.4 0.0 2.3
21:16 15.0 10.4 74 1019.0 3.8 W 5.4 0.0 2.3
21:17 15.0 10.4 74 1018.8 5.4 SW 5.4 0.0 2.3
21:18 15.0 10.4 74 1018.9 5.4 W 5.4 0.0 2.3
21:19 14.9 10.3 74 1019.1 6.9 W 6.9 0.0 2.3
21:20 14.9 10.3 74 1019.1 6.9 W 6.9 0.0 2.3
21:21 14.9 10.3 74 1019.2 6.0 W 6.9 0.0 2.3
21:22 14.9 10.3 74 1019.0 5.4 W 6.9 0.0 2.3
21:23 14.9 10.3 74 1019.1 4.5 NW 6.9 0.0 2.3
21:24 14.9 10.3 74 1019.3 4.5 W 6.9 0.0 2.3
21:25 14.9 10.3 74 1019.2 4.5 W 6.9 0.0 2.3
21:26 14.9 10.3 74 1019.3 5.4 W 6.9 0.0 2.3
21:27 14.9 10.3 74 1019.0 5.4 W 6.9 0.0 2.3
21:28 14.9 10.3 74 1019.2 4.5 SW 6.9 0.0 2.3
21:29 14.8 10.2 74 1019.2 5.4 W 6.9 0.0 2.3
21:30 14.8 10.2 74 1019.2 6.9 W 6.9 0.0 2.3
21:31 14.8 10.0 73 1019.1 6.9 SW 6.9 0.0 2.3
21:32 14.8 10.0 73 1019.2 6.0 W 6.9 0.0 2.3
21:33 14.8 10.0 73 1019.1 7.6 W 7.6 0.0 2.3
21:34 14.8 10.0 73 1019.0 6.9 SW 7.6 0.0 2.3
21:35 14.8 10.0 73 1019.3 6.9 W 7.6 0.0 2.3
21:36 14.8 10.0 73 1019.1 6.9 W 7.6 0.0 2.3
21:37 14.8 10.0 73 1019.3 4.5 W 7.6 0.0 2.3
21:38 14.8 10.0 73 1019.3 6.9 W 7.6 0.0 2.3
21:39 14.8 10.0 73 1019.2 6.9 NW 7.6 0.0 2.3
21:40 14.8 10.0 73 1019.2 6.9 NW 7.6 0.0 2.3
21:41 14.8 10.0 73 1019.3 7.6 SW 7.6 0.0 2.3
21:42 14.8 10.0 73 1019.1 5.4 W 7.6 0.0 2.3
21:43 14.8 10.0 73 1019.2 4.5 W 7.6 0.0 2.3
21:44 14.8 10.0 73 1019.3 4.5 W 7.6 0.0 2.3
21:45 14.8 10.0 73 1019.3 6.9 W 7.6 0.0 2.3
21:46 14.7 9.9 73 1019.4 5.4 W 7.6 0.0 2.3
21:47 14.7 9.9 73 1019.4 6.0 SW 7.6 0.0 2.3
21:48 14.7 9.9 73 1019.1 5.4 W 7.6 0.0 2.3
21:49 14.7 9.9 73 1019.5 5.4 W 7.6 0.0 2.3
21:50 14.7 9.9 73 1019.2 5.4 W 7.6 0.0 2.3
21:51 14.7 9.9 73 1019.4 5.4 SW 6.9 0.0 2.3
21:52 14.7 9.9 73 1019.4 5.4 W 6.9 0.0 2.3
21:53 14.7 9.9 73 1019.4 3.1 W 6.9 0.0 2.3
21:54 14.7 9.9 73 1019.2 3.1 W 6.9 0.0 2.3
21:55 14.7 9.9 73 1019.1 5.4 W 6.9 0.0 2.3
21:56 14.7 9.9 73 1019.2 4.5 W 6.0 0.0 2.3
21:57 14.6 9.8 73 1019.1 5.4 SW 6.0 0.0 2.3
21:58 14.6 9.8 73 1019.2 5.4 W 5.4 0.0 2.3
21:59 14.6 9.8 73 1019.3 4.5 SW 5.4 0.0 2.3
22:00 14.6 9.8 73 1019.3 4.5 W 5.4 0.0 2.3
22:01 14.6 9.8 73 1019.0 4.5 SW 5.4 0.0 2.3
22:02 14.6 9.8 73 1019.1 4.5 SW 5.4 0.0 2.3
22:03 14.6 9.8 73 1019.3 4.5 SW 5.4 0.0 2.3
22:04 14.6 9.8 73 1019.3 4.5 SW 5.4 0.0 2.3
22:05 14.6 9.8 73 1019.2 4.5 SW 5.4 0.0 2.3
22:06 14.6 9.8 73 1019.3 4.5 SW 5.4 0.0 2.3
22:07 14.6 9.8 73 1019.4 3.8 W 5.4 0.0 2.3
22:08 14.6 9.8 73 1019.3 4.5 W 5.4 0.0 2.3
22:09 14.5 9.7 73 1019.0 4.5 SW 5.4 0.0 2.3
22:10 14.5 9.7 73 1019.1 4.5 W 5.4 0.0 2.3
22:11 14.5 9.7 73 1019.1 3.1 SW 5.4 0.0 2.3
22:12 14.5 9.7 73 1019.1 3.1 W 5.4 0.0 2.3
22:13 14.5 9.7 73 1019.2 4.5 SW 5.4 0.0 2.3
22:14 14.5 9.7 73 1019.0 3.8 W 5.4 0.0 2.3
22:15 14.5 9.7 73 1019.1 3.1 W 5.4 0.0 2.3
22:17 14.5 9.9 74 1019.1 4.5 SW 5.4 0.0 2.3
22:18 14.5 9.9 74 1019.1 5.4 SW 5.4 0.0 2.3
22:19 14.5 9.9 74 1019.3 4.5 SW 5.4 0.0 2.3
22:20 14.5 9.9 74 1019.1 5.4 WSW 5.4 0.0 2.3
22:21 14.5 9.9 74 1019.3 5.4 W 5.4 0.0 2.3
22:22 14.5 9.9 74 1019.2 3.8 SW 5.4 0.0 2.3
22:23 14.5 9.9 74 1019.3 3.1 W 5.4 0.0 2.3
22:24 14.5 9.9 74 1019.3 3.1 W 5.4 0.0 2.3
22:25 14.5 9.9 74 1019.1 4.5 W 5.4 0.0 2.3
22:26 14.5 9.9 74 1019.0 6.9 W 6.9 0.0 2.3
22:27 14.5 9.9 74 1019.3 5.4 W 6.9 0.0 2.3
22:28 14.4 9.8 74 1019.1 3.8 W 6.9 0.0 2.3
22:29 14.4 9.8 74 1019.2 5.4 W 6.9 0.0 2.3
22:30 14.4 9.8 74 1019.1 5.4 W 6.9 0.0 2.3
22:31 14.4 9.8 74 1019.1 3.1 W 6.9 0.0 2.3
22:32 14.4 9.8 74 1019.2 3.8 SW 6.9 0.0 2.3
22:33 14.4 9.8 74 1019.2 4.5 W 6.9 0.0 2.3
22:34 14.4 9.8 74 1019.2 3.8 W 6.9 0.0 2.3
22:35 14.4 9.8 74 1019.0 3.8 W 6.9 0.0 2.3
22:36 14.4 9.8 74 1019.0 5.4 SW 5.4 0.0 2.3
22:37 14.4 9.8 74 1019.1 3.8 SW 5.4 0.0 2.3
22:38 14.4 9.8 74 1019.2 3.8 SW 5.4 0.0 2.3
22:39 14.4 9.8 74 1019.3 3.1 SW 5.4 0.0 2.3
22:40 14.4 9.8 74 1019.1 3.8 SW 5.4 0.0 2.3
22:41 14.4 10.0 75 1019.2 3.8 W 5.4 0.0 2.3
22:42 14.4 10.0 75 1019.2 3.8 SW 5.4 0.0 2.3
22:43 14.4 10.0 75 1019.1 3.1 W 5.4 0.0 2.3
22:44 14.4 10.0 75 1019.3 4.5 W 5.4 0.0 2.3
22:45 14.4 10.0 75 1019.2 3.8 W 5.4 0.0 2.3
22:46 14.4 10.0 75 1019.1 3.8 SW 5.4 0.0 2.3
22:47 14.4 10.0 75 1019.1 3.1 W 4.5 0.0 2.3
22:48 14.4 10.0 75 1019.2 2.2 SW 4.5 0.0 2.3
22:49 14.4 10.0 75 1019.2 2.2 SW 4.5 0.0 2.3
22:50 14.4 10.0 75 1019.2 3.8 SW 4.5 0.0 2.3
22:51 14.4 10.0 75 1019.2 3.1 W 4.5 0.0 2.3
22:52 14.4 10.0 75 1019.1 3.1 W 4.5 0.0 2.3
22:53 14.4 10.0 75 1019.2 2.2 SW 4.5 0.0 2.3
22:54 14.4 10.0 75 1018.9 3.1 WSW 3.8 0.0 2.3
22:55 14.4 10.0 75 1019.3 2.2 SW 3.8 0.0 2.3
22:56 14.4 10.0 75 1019.1 2.2 W 3.8 0.0 2.3
22:57 14.4 10.0 75 1019.1 3.1 WSW 3.8 0.0 2.3
22:58 14.4 10.0 75 1018.9 3.1 SW 3.8 0.0 2.3
22:59 14.4 10.0 75 1019.1 2.2 SW 3.8 0.0 2.3
23:00 14.4 10.0 75 1019.1 3.1 W 3.8 0.0 2.3
23:01 14.3 9.9 75 1019.1 3.1 SW 3.8 0.0 2.3
23:02 14.3 9.9 75 1019.1 3.1 SW 3.1 0.0 2.3
23:03 14.3 9.9 75 1019.0 3.1 SW 3.1 0.0 2.3
23:04 14.3 9.9 75 1019.0 3.1 SW 3.1 0.0 2.3
23:05 14.3 9.9 75 1019.0 3.1 SW 3.1 0.0 2.3
23:06 14.3 9.9 75 1019.0 3.1 SW 3.1 0.0 2.3
23:07 14.3 10.1 76 1019.1 3.8 W 3.8 0.0 2.3
23:08 14.3 10.1 76 1019.2 6.0 W 6.0 0.0 2.3
23:09 14.3 10.1 76 1019.1 6.9 W 6.9 0.0 2.3
23:10 14.3 10.1 76 1019.3 12.1 W 12.1 0.0 2.3
23:11 14.3 10.1 76 1019.1 10.7 SW 12.1 0.0 2.3
23:12 14.3 10.1 76 1019.1 12.1 NW 12.1 0.0 2.3
23:13 14.3 10.1 76 1019.1 9.2 SW 12.1 0.0 2.3
23:14 14.3 10.1 76 1019.1 7.6 W 12.1 0.0 2.3
23:15 14.3 10.1 76 1019.0 6.9 NW 12.1 0.0 2.3
23:16 14.3 10.1 76 1019.4 5.4 E 12.1 0.0 2.3
23:17 14.3 10.1 76 1019.0 5.4 W 12.1 0.0 2.3
23:18 14.2 10.0 76 1019.0 5.4 NW 12.1 0.0 2.3
23:19 14.2 10.0 76 1019.0 5.4 W 12.1 0.0 2.3
23:20 14.2 10.0 76 1019.0 4.5 SW 12.1 0.0 2.3
23:21 14.2 10.0 76 1019.0 6.0 W 12.1 0.0 2.3
23:22 14.2 10.0 76 1018.9 5.4 W 11.4 0.0 2.3
23:23 14.2 10.0 76 1019.0 5.4 W 7.6 0.0 2.3
23:24 14.2 10.0 76 1019.0 5.4 W 7.6 0.0 2.3
23:25 14.2 10.0 76 1018.8 3.8 NW 6.9 0.0 2.3
23:26 14.2 10.0 76 1018.9 3.8 W 6.0 0.0 2.3
23:27 14.1 9.9 76 1019.1 3.1 W 6.0 0.0 2.3
23:28 14.1 9.9 76 1019.1 3.1 SW 6.0 0.0 2.3
23:29 14.1 9.9 76 1019.1 3.8 NW 6.0 0.0 2.3
23:30 14.1 9.9 76 1018.9 3.8 W 6.0 0.0 2.3
23:31 14.1 9.9 76 1018.9 3.8 W 6.0 0.0 2.3
23:32 14.1 9.9 76 1019.0 3.8 WNW 6.0 0.0 2.3
23:33 14.1 9.9 76 1019.0 3.8 W 5.4 0.0 2.3
23:34 14.1 9.9 76 1018.9 2.2 W 5.4 0.0 2.3
23:35 14.0 9.8 76 1018.7 4.5 W 4.5 0.0 2.3
23:36 14.0 9.8 76 1018.9 3.8 NW 4.5 0.0 2.3
23:37 14.0 9.8 76 1018.9 3.1 W 4.5 0.0 2.3
23:38 14.0 9.8 76 1019.0 3.1 W 4.5 0.0 2.3
23:39 14.0 10.0 77 1018.9 3.1 W 4.5 0.0 2.3
23:40 14.0 10.0 77 1018.9 3.8 W 4.5 0.0 2.3
23:41 14.0 10.0 77 1019.0 4.5 W 4.5 0.0 2.3
23:42 14.0 10.0 77 1018.9 3.1 W 4.5 0.0 2.3
23:43 14.0 10.0 77 1019.0 2.2 W 4.5 0.0 2.3
23:44 14.0 10.0 77 1018.9 3.1 SW 4.5 0.0 2.3
23:45 14.0 10.0 77 1018.8 2.2 W 4.5 0.0 2.3
23:46 14.0 10.0 77 1018.9 3.1 W 4.5 0.0 2.3
23:47 14.0 10.0 77 1018.7 2.2 SW 4.5 0.0 2.3
23:48 14.0 10.0 77 1018.7 2.2 W 4.5 0.0 2.3
23:49 14.0 10.0 77 1018.9 2.2 W 4.5 0.0 2.3
23:50 13.9 9.9 77 1018.8 2.2 W 4.5 0.0 2.3
23:51 13.9 9.9 77 1018.9 2.2 W 4.5 0.0 2.3
23:52 13.9 9.9 77 1018.9 2.2 W 3.8 0.0 2.3
23:53 13.9 9.9 77 1018.9 3.1 W 3.8 0.0 2.3
23:54 13.9 9.9 77 1018.8 2.2 W 3.8 0.0 2.3
23:55 13.9 9.9 77 1018.8 2.2 W 3.1 0.0 2.3
23:56 13.9 9.9 77 1018.7 2.2 SW 3.1 0.0 2.3
23:57 13.8 9.8 77 1018.7 3.1 SW 3.1 0.0 2.3
23:58 13.8 9.8 77 1018.7 3.1 SW 3.1 0.0 2.3
23:59 13.8 9.8 77 1018.7 2.2 WSW 3.1 0.0 2.3

 

 

UK - WEATHER STATION TOPSITES - UK World Weather Websites

Copyright © Carnkie Weather 2009 - 2020.